SWI199 UKHH-UEEE
Flight info
| Callsign | SWI199 |
|---|---|
| Flight time | 10h 18m |
| Altitude | 35000 |
| Route | UKHH KUBOK TUMIT SUPUD ENOSI LAKEG BULAT OGDAT UNBEL RANTO DEGOP AGBIR MIGRI TUNOB REVDU MOVUN SUBIB NUGBI RONTA KTL NAZOL GONIB IDLIR ADMON NUMTA RITUM UHT TUKPO OKROD DISEB OLAPI KUGET BURIB LAGNI OKRAM OKLIN MEMBA URENA BANTA THN SAKAT GOLUK UNILA VADAS NITNO DEM NANAT ARKOM GLIDA ABAPI GISUN MAROT BAGIN NIBES UEEE |
| Aircraft | A333/H-GPS/L |
Departure
| Time | 2026-05-07 00:30 |
|---|---|
| Airport | Kharkiv International Airport (UKHH) |
Arrival
| Time | 2026-05-07 10:48 |
|---|---|
| Airport | Platon Oyunsky Yakutsk International Airport (UEEE) |
| Time | Latitude | Longitude | Altitude | Speed | Heading |
|---|---|---|---|---|---|
| 2026-05-07 00:22 | 49.92279 | 36.28083 | 498 ft | 0 kts | 240° |
| 2026-05-07 00:27 | 49.92279 | 36.28084 | 498 ft | 0 kts | 240° |
| 2026-05-07 00:28 | 49.92280 | 36.28086 | 498 ft | 0 kts | 240° |
| 2026-05-07 00:28 | 49.92288 | 36.28108 | 499 ft | 4 kts | 240° |
| 2026-05-07 00:28 | 49.92299 | 36.28151 | 500 ft | 3 kts | 308° |
| 2026-05-07 00:28 | 49.92291 | 36.28165 | 500 ft | 1 kts | 311° |
| 2026-05-07 00:29 | 49.92352 | 36.28115 | 501 ft | 18 kts | 341° |
| 2026-05-07 00:29 | 49.92512 | 36.28168 | 505 ft | 31 kts | 40° |
| 2026-05-07 00:30 | 49.92864 | 36.31522 | 677 ft | 185 kts | 85° |
| 2026-05-07 00:30 | 49.92930 | 36.33538 | 1350 ft | 196 kts | 92° |
| 2026-05-07 00:30 | 49.92783 | 36.35773 | 1954 ft | 221 kts | 99° |
| 2026-05-07 00:30 | 49.92483 | 36.38220 | 2682 ft | 246 kts | 102° |
| 2026-05-07 00:31 | 49.92032 | 36.40854 | 3610 ft | 266 kts | 106° |
| 2026-05-07 00:31 | 49.91624 | 36.43628 | 4897 ft | 268 kts | 98° |
| 2026-05-07 00:31 | 49.91282 | 36.46713 | 5155 ft | 315 kts | 99° |
| 2026-05-07 00:31 | 49.90902 | 36.50158 | 5992 ft | 339 kts | 99° |
| 2026-05-07 00:32 | 49.90500 | 36.53829 | 6949 ft | 358 kts | 98° |
| 2026-05-07 00:32 | 49.90073 | 36.57647 | 8113 ft | 369 kts | 99° |
| 2026-05-07 00:32 | 49.89636 | 36.61544 | 9400 ft | 374 kts | 98° |
| 2026-05-07 00:32 | 49.89185 | 36.65551 | 10678 ft | 377 kts | 99° |
| 2026-05-07 00:33 | 49.88737 | 36.69475 | 11903 ft | 379 kts | 99° |
| 2026-05-07 00:33 | 49.88279 | 36.73455 | 13136 ft | 379 kts | 99° |
| 2026-05-07 00:33 | 49.87794 | 36.77405 | 14365 ft | 377 kts | 100° |
| 2026-05-07 00:33 | 49.87417 | 36.80271 | 15260 ft | 374 kts | 100° |
| 2026-05-07 00:34 | 49.86904 | 36.84132 | 16479 ft | 368 kts | 100° |
| 2026-05-07 00:34 | 49.86393 | 36.87936 | 17694 ft | 361 kts | 100° |
| 2026-05-07 00:34 | 49.85882 | 36.91707 | 18422 ft | 367 kts | 100° |
| 2026-05-07 00:34 | 49.85353 | 36.95644 | 18563 ft | 380 kts | 100° |
| 2026-05-07 00:35 | 49.84817 | 36.99662 | 18834 ft | 387 kts | 100° |
| 2026-05-07 00:35 | 49.84275 | 37.03749 | 19090 ft | 389 kts | 100° |
| 2026-05-07 00:35 | 49.83735 | 37.07891 | 19347 ft | 389 kts | 100° |
| 2026-05-07 00:35 | 49.83308 | 37.12019 | 19387 ft | 390 kts | 91° |
| 2026-05-07 00:36 | 49.83657 | 37.16129 | 19376 ft | 386 kts | 72° |
| 2026-05-07 00:36 | 49.84857 | 37.19776 | 19398 ft | 384 kts | 53° |
| 2026-05-07 00:36 | 49.86797 | 37.22619 | 19423 ft | 385 kts | 34° |
| 2026-05-07 00:36 | 49.89231 | 37.24302 | 19445 ft | 386 kts | 17° |
| 2026-05-07 00:37 | 49.91803 | 37.25478 | 19492 ft | 387 kts | 16° |
| 2026-05-07 00:37 | 49.94487 | 37.25916 | 19481 ft | 390 kts | 357° |
| 2026-05-07 00:37 | 49.97129 | 37.24939 | 19501 ft | 394 kts | 338° |
| 2026-05-07 00:37 | 49.99424 | 37.22669 | 19522 ft | 398 kts | 319° |
| 2026-05-07 00:38 | 50.01157 | 37.19292 | 19542 ft | 402 kts | 300° |
| 2026-05-07 00:38 | 50.02091 | 37.15267 | 19563 ft | 405 kts | 281° |
| 2026-05-07 00:38 | 50.02188 | 37.10874 | 19598 ft | 406 kts | 267° |
| 2026-05-07 00:38 | 50.01994 | 37.06524 | 19639 ft | 407 kts | 266° |
| 2026-05-07 00:39 | 50.01617 | 37.02188 | 19659 ft | 407 kts | 262° |
| 2026-05-07 00:39 | 50.01189 | 36.97830 | 19523 ft | 412 kts | 262° |
| 2026-05-07 00:39 | 50.00762 | 36.93470 | 19081 ft | 409 kts | 262° |
| 2026-05-07 00:39 | 50.00294 | 36.89169 | 18689 ft | 402 kts | 260° |
| 2026-05-07 00:40 | 49.99766 | 36.84900 | 17627 ft | 413 kts | 260° |
| 2026-05-07 00:40 | 49.99218 | 36.80494 | 17040 ft | 408 kts | 260° |
| 2026-05-07 00:40 | 49.98693 | 36.76250 | 16735 ft | 391 kts | 261° |
| 2026-05-07 00:40 | 49.98194 | 36.72245 | 16242 ft | 370 kts | 260° |
| 2026-05-07 00:41 | 49.97711 | 36.68451 | 15835 ft | 350 kts | 260° |
| 2026-05-07 00:41 | 49.97253 | 36.64864 | 15432 ft | 333 kts | 260° |
| 2026-05-07 00:41 | 49.96805 | 36.61385 | 14616 ft | 333 kts | 260° |
| 2026-05-07 00:41 | 49.96349 | 36.57837 | 13289 ft | 347 kts | 260° |
| 2026-05-07 00:42 | 49.95889 | 36.54190 | 12090 ft | 352 kts | 260° |
| 2026-05-07 00:42 | 49.95420 | 36.50455 | 10870 ft | 355 kts | 260° |
| 2026-05-07 00:42 | 49.94957 | 36.46729 | 9642 ft | 355 kts | 260° |
| 2026-05-07 00:42 | 49.94414 | 36.43077 | 8413 ft | 355 kts | 250° |
| 2026-05-07 00:43 | 49.93189 | 36.39849 | 7186 ft | 353 kts | 229° |
| 2026-05-07 00:43 | 49.91291 | 36.37520 | 5959 ft | 351 kts | 208° |
| 2026-05-07 00:43 | 49.88985 | 36.36420 | 4717 ft | 349 kts | 187° |
| 2026-05-07 00:43 | 49.86600 | 36.36626 | 4200 ft | 343 kts | 174° |
| 2026-05-07 00:44 | 49.84365 | 36.37665 | 3973 ft | 333 kts | 154° |
| 2026-05-07 00:44 | 49.82562 | 36.39856 | 3661 ft | 327 kts | 132° |
| 2026-05-07 00:44 | 49.81460 | 36.42832 | 3348 ft | 321 kts | 109° |
| 2026-05-07 00:44 | 49.81142 | 36.46176 | 3054 ft | 314 kts | 91° |
| 2026-05-07 00:45 | 49.81097 | 36.49535 | 2798 ft | 307 kts | 91° |
| 2026-05-07 00:45 | 49.81049 | 36.52798 | 2534 ft | 302 kts | 91° |
| 2026-05-07 00:45 | 49.81123 | 36.55992 | 2229 ft | 297 kts | 78° |
| 2026-05-07 00:45 | 49.81919 | 36.58860 | 1913 ft | 288 kts | 51° |
| 2026-05-07 00:46 | 49.83384 | 36.60871 | 1611 ft | 277 kts | 25° |
| 2026-05-07 00:46 | 49.85155 | 36.61752 | 1349 ft | 268 kts | 10° |
| 2026-05-07 00:46 | 49.86973 | 36.62285 | 1090 ft | 263 kts | 5° |
| 2026-05-07 00:46 | 49.88730 | 36.61935 | 916 ft | 250 kts | 335° |
| 2026-05-07 00:47 | 49.90031 | 36.60348 | 997 ft | 230 kts | 304° |
| 2026-05-07 00:47 | 49.90527 | 36.58158 | 951 ft | 206 kts | 270° |
| 2026-05-07 00:47 | 49.90340 | 36.56059 | 981 ft | 193 kts | 261° |
| 2026-05-07 00:47 | 49.90084 | 36.54100 | 977 ft | 177 kts | 260° |
| 2026-05-07 00:48 | 49.89887 | 36.52317 | 1116 ft | 164 kts | 269° |
| 2026-05-07 00:48 | 49.89934 | 36.50534 | 949 ft | 166 kts | 281° |
| 2026-05-07 00:48 | 49.90144 | 36.48785 | 1003 ft | 165 kts | 285° |
| 2026-05-07 00:48 | 49.90526 | 36.47126 | 978 ft | 161 kts | 291° |
| 2026-05-07 00:49 | 49.90911 | 36.45512 | 979 ft | 158 kts | 291° |
| 2026-05-07 00:49 | 49.91291 | 36.43923 | 987 ft | 157 kts | 290° |
| 2026-05-07 00:49 | 49.91672 | 36.42334 | 991 ft | 157 kts | 290° |
| 2026-05-07 00:49 | 49.92050 | 36.40765 | 995 ft | 157 kts | 290° |
| 2026-05-07 00:50 | 49.92433 | 36.39175 | 993 ft | 151 kts | 290° |
| 2026-05-07 00:50 | 49.92798 | 36.37669 | 971 ft | 148 kts | 291° |
| 2026-05-07 00:50 | 49.93157 | 36.36162 | 994 ft | 147 kts | 290° |
| 2026-05-07 00:50 | 49.93333 | 36.34620 | 1074 ft | 147 kts | 260° |
| 2026-05-07 00:51 | 49.93111 | 36.33058 | 837 ft | 147 kts | 251° |
| 2026-05-07 00:51 | 49.92938 | 36.31506 | 732 ft | 142 kts | 258° |
| 2026-05-07 00:51 | 49.92774 | 36.30047 | 513 ft | 124 kts | 262° |
| 2026-05-07 00:51 | 49.92722 | 36.29442 | 512 ft | 0 kts | 268° |
| 2026-05-07 00:52 | 49.92722 | 36.29419 | 512 ft | 9 kts | 268° |
| 2026-05-07 00:52 | 49.92702 | 36.29239 | 511 ft | 20 kts | 262° |
| 2026-05-07 00:52 | 49.92700 | 36.29213 | 510 ft | 6 kts | 262° |
| 2026-05-07 00:53 | 49.92686 | 36.29050 | 508 ft | 23 kts | 262° |
| 2026-05-07 00:53 | 49.92657 | 36.28716 | 506 ft | 39 kts | 262° |
| 2026-05-07 00:53 | 49.92550 | 36.28243 | 505 ft | 53 kts | 235° |
| 2026-05-07 00:53 | 49.92423 | 36.27708 | 498 ft | 54 kts | 267° |
| 2026-05-07 00:54 | 49.92416 | 36.27469 | 492 ft | 0 kts | 310° |
| 2026-05-07 00:54 | 49.92422 | 36.27458 | 492 ft | 2 kts | 310° |
| 2026-05-07 00:54 | 49.92441 | 36.27426 | 491 ft | 11 kts | 315° |
| 2026-05-07 00:54 | 49.92544 | 36.27444 | 494 ft | 30 kts | 71° |
| 2026-05-07 00:55 | 49.92611 | 36.28159 | 505 ft | 105 kts | 78° |
| 2026-05-07 00:55 | 49.92748 | 36.29664 | 514 ft | 171 kts | 84° |
| 2026-05-07 00:55 | 49.92887 | 36.31705 | 807 ft | 203 kts | 83° |
| 2026-05-07 00:55 | 49.92979 | 36.33862 | 1783 ft | 209 kts | 88° |
| 2026-05-07 00:56 | 49.93079 | 36.36204 | 2317 ft | 242 kts | 70° |
| 2026-05-07 00:56 | 49.94057 | 36.38621 | 2588 ft | 288 kts | 40° |
| 2026-05-07 00:56 | 49.95879 | 36.40339 | 2899 ft | 323 kts | 17° |
| 2026-05-07 00:56 | 49.98018 | 36.40804 | 3207 ft | 307 kts | 351° |
| 2026-05-07 00:57 | 50.00031 | 36.40146 | 4442 ft | 290 kts | 346° |
| 2026-05-07 00:57 | 50.01906 | 36.39503 | 5695 ft | 272 kts | 346° |
| 2026-05-07 00:57 | 50.03681 | 36.38892 | 6756 ft | 259 kts | 347° |
| 2026-05-07 00:57 | 50.05492 | 36.38267 | 6964 ft | 280 kts | 347° |
| 2026-05-07 00:58 | 50.07452 | 36.37597 | 7250 ft | 298 kts | 348° |
| 2026-05-07 00:58 | 50.09592 | 36.37566 | 7525 ft | 316 kts | 10° |
| 2026-05-07 00:58 | 50.11750 | 36.38424 | 7830 ft | 333 kts | 15° |
| 2026-05-07 00:58 | 50.14032 | 36.39496 | 8106 ft | 345 kts | 17° |
| 2026-05-07 00:59 | 50.18530 | 36.41704 | 9317 ft | 337 kts | 17° |
| 2026-05-07 00:59 | 50.20769 | 36.42811 | 10079 ft | 339 kts | 17° |
| 2026-05-07 00:59 | 50.22982 | 36.43908 | 10816 ft | 340 kts | 17° |
| 2026-05-07 01:00 | 50.25218 | 36.45016 | 11553 ft | 340 kts | 17° |
| 2026-05-07 01:00 | 50.27483 | 36.46140 | 12299 ft | 339 kts | 18° |
| 2026-05-07 01:00 | 50.29718 | 36.47250 | 13034 ft | 338 kts | 18° |
| 2026-05-07 01:00 | 50.31949 | 36.48360 | 13757 ft | 337 kts | 18° |
| 2026-05-07 01:01 | 50.34152 | 36.49457 | 14504 ft | 335 kts | 18° |
| 2026-05-07 01:01 | 50.36347 | 36.50551 | 15233 ft | 333 kts | 18° |
| 2026-05-07 01:01 | 50.38531 | 36.51641 | 15959 ft | 330 kts | 18° |
| 2026-05-07 01:01 | 50.40691 | 36.52719 | 16686 ft | 326 kts | 18° |
| 2026-05-07 01:02 | 50.42847 | 36.53796 | 17410 ft | 322 kts | 18° |
| 2026-05-07 01:02 | 50.44941 | 36.54843 | 18122 ft | 317 kts | 17° |
| 2026-05-07 01:02 | 50.47060 | 36.55904 | 18448 ft | 326 kts | 17° |
| 2026-05-07 01:02 | 50.49245 | 36.56997 | 18677 ft | 338 kts | 17° |
| 2026-05-07 01:03 | 50.51560 | 36.58159 | 18681 ft | 356 kts | 17° |
| 2026-05-07 01:03 | 50.53952 | 36.59360 | 18697 ft | 372 kts | 18° |
| 2026-05-07 01:03 | 50.56493 | 36.60637 | 18732 ft | 388 kts | 18° |
| 2026-05-07 01:03 | 50.59078 | 36.61937 | 18750 ft | 395 kts | 18° |
| 2026-05-07 01:04 | 50.61680 | 36.63249 | 18977 ft | 388 kts | 17° |
| 2026-05-07 01:04 | 50.64225 | 36.64533 | 19397 ft | 388 kts | 17° |
| 2026-05-07 01:04 | 50.66804 | 36.65836 | 19790 ft | 393 kts | 18° |
| 2026-05-07 01:04 | 50.69397 | 36.67146 | 20185 ft | 396 kts | 18° |
| 2026-05-07 01:05 | 50.72031 | 36.68480 | 20578 ft | 400 kts | 18° |
| 2026-05-07 01:05 | 50.74675 | 36.69820 | 20978 ft | 403 kts | 18° |
| 2026-05-07 01:05 | 50.77383 | 36.71194 | 21385 ft | 406 kts | 18° |
| 2026-05-07 01:05 | 50.80068 | 36.72557 | 21793 ft | 410 kts | 18° |
| 2026-05-07 01:06 | 50.82773 | 36.73933 | 22190 ft | 413 kts | 18° |
| 2026-05-07 01:06 | 50.85510 | 36.75328 | 22585 ft | 417 kts | 18° |
| 2026-05-07 01:06 | 50.88271 | 36.76736 | 22983 ft | 420 kts | 18° |
| 2026-05-07 01:06 | 50.91056 | 36.78157 | 23392 ft | 423 kts | 18° |
| 2026-05-07 01:07 | 50.93876 | 36.79599 | 23798 ft | 425 kts | 18° |
| 2026-05-07 01:07 | 50.96683 | 36.81036 | 24200 ft | 427 kts | 18° |
| 2026-05-07 01:07 | 50.99506 | 36.82482 | 24602 ft | 429 kts | 18° |
| 2026-05-07 01:07 | 51.02331 | 36.83931 | 25004 ft | 430 kts | 18° |
| 2026-05-07 01:08 | 51.05181 | 36.85395 | 25406 ft | 432 kts | 18° |
| 2026-05-07 01:08 | 51.08029 | 36.86861 | 25805 ft | 433 kts | 18° |
| 2026-05-07 01:08 | 51.10899 | 36.88339 | 26205 ft | 435 kts | 18° |
| 2026-05-07 01:08 | 51.13761 | 36.89816 | 26602 ft | 436 kts | 18° |
| 2026-05-07 01:09 | 51.16625 | 36.91294 | 26999 ft | 437 kts | 18° |
| 2026-05-07 01:09 | 51.19539 | 36.92801 | 27397 ft | 438 kts | 19° |
| 2026-05-07 01:09 | 51.22428 | 36.94297 | 27795 ft | 439 kts | 19° |
| 2026-05-07 01:09 | 51.25306 | 36.95790 | 28192 ft | 440 kts | 19° |
| 2026-05-07 01:10 | 51.28222 | 36.97303 | 28589 ft | 441 kts | 19° |
| 2026-05-07 01:10 | 51.31136 | 36.98818 | 28988 ft | 442 kts | 19° |
| 2026-05-07 01:10 | 51.34034 | 37.00328 | 29390 ft | 442 kts | 19° |
| 2026-05-07 01:10 | 51.36968 | 37.01858 | 29791 ft | 443 kts | 19° |
| 2026-05-07 01:11 | 51.39865 | 37.03370 | 30187 ft | 443 kts | 19° |
| 2026-05-07 01:11 | 51.42786 | 37.04896 | 30586 ft | 443 kts | 19° |
| 2026-05-07 01:11 | 51.45731 | 37.06438 | 30964 ft | 443 kts | 19° |
| 2026-05-07 01:11 | 51.48647 | 37.07967 | 31340 ft | 443 kts | 19° |
| 2026-05-07 01:12 | 51.51560 | 37.09496 | 31714 ft | 442 kts | 19° |
| 2026-05-07 01:12 | 51.54454 | 37.11018 | 32085 ft | 441 kts | 19° |
| 2026-05-07 01:12 | 51.57371 | 37.12553 | 32460 ft | 440 kts | 19° |
| 2026-05-07 01:12 | 51.60267 | 37.14075 | 32838 ft | 439 kts | 18° |
| 2026-05-07 01:13 | 51.63225 | 37.14941 | 33186 ft | 438 kts | 3° |
| 2026-05-07 01:13 | 51.66274 | 37.15080 | 33594 ft | 435 kts | 2° |
| 2026-05-07 01:13 | 51.69285 | 37.15248 | 33977 ft | 433 kts | 2° |
| 2026-05-07 01:13 | 51.72268 | 37.15418 | 34357 ft | 431 kts | 2° |
| 2026-05-07 01:14 | 51.75237 | 37.15588 | 34727 ft | 429 kts | 2° |
| 2026-05-07 01:14 | 51.78192 | 37.15759 | 34993 ft | 428 kts | 2° |
| 2026-05-07 01:14 | 51.81212 | 37.15933 | 34969 ft | 436 kts | 2° |
| 2026-05-07 01:15 | 51.87330 | 37.16287 | 35006 ft | 447 kts | 2° |
| 2026-05-07 01:15 | 51.93619 | 37.16653 | 34992 ft | 457 kts | 2° |
| 2026-05-07 01:16 | 52.00010 | 37.17025 | 34987 ft | 465 kts | 2° |
| 2026-05-07 01:16 | 52.06506 | 37.17405 | 34988 ft | 470 kts | 2° |
| 2026-05-07 01:17 | 52.13016 | 37.17786 | 34987 ft | 471 kts | 2° |
| 2026-05-07 01:17 | 52.19521 | 37.18168 | 34981 ft | 465 kts | 2° |
| 2026-05-07 01:18 | 52.25929 | 37.18545 | 34984 ft | 465 kts | 2° |
| 2026-05-07 01:18 | 52.32370 | 37.18926 | 34980 ft | 464 kts | 2° |
| 2026-05-07 01:19 | 52.38824 | 37.19309 | 34974 ft | 464 kts | 2° |
| 2026-05-07 01:19 | 52.45231 | 37.19691 | 34969 ft | 464 kts | 2° |
| 2026-05-07 01:20 | 52.51647 | 37.20073 | 34966 ft | 464 kts | 2° |
| 2026-05-07 01:20 | 52.58109 | 37.20459 | 34973 ft | 465 kts | 1° |
| 2026-05-07 01:21 | 52.64536 | 37.20844 | 34969 ft | 465 kts | 1° |
| 2026-05-07 01:21 | 52.71007 | 37.21233 | 34960 ft | 465 kts | 1° |
| 2026-05-07 01:22 | 52.77418 | 37.21620 | 34960 ft | 465 kts | 1° |
| 2026-05-07 01:22 | 52.83880 | 37.22012 | 34956 ft | 465 kts | 1° |
| 2026-05-07 01:23 | 52.90325 | 37.22403 | 34953 ft | 466 kts | 1° |
| 2026-05-07 01:23 | 52.96790 | 37.22796 | 34955 ft | 467 kts | 1° |
| 2026-05-07 01:24 | 53.03263 | 37.23190 | 34954 ft | 466 kts | 1° |
| 2026-05-07 01:24 | 53.09753 | 37.23588 | 34953 ft | 466 kts | 1° |
| 2026-05-07 01:25 | 53.16180 | 37.23983 | 34951 ft | 466 kts | 1° |
| 2026-05-07 01:25 | 53.22658 | 37.24382 | 34954 ft | 466 kts | 1° |
| 2026-05-07 01:26 | 53.29119 | 37.24782 | 34954 ft | 466 kts | 1° |
| 2026-05-07 01:26 | 53.35565 | 37.25181 | 34953 ft | 466 kts | 1° |
| 2026-05-07 01:27 | 53.42029 | 37.25583 | 34950 ft | 466 kts | 1° |
| 2026-05-07 01:27 | 53.48480 | 37.25985 | 34944 ft | 467 kts | 1° |
| 2026-05-07 01:28 | 53.54961 | 37.26391 | 34942 ft | 467 kts | 1° |
| 2026-05-07 01:28 | 53.61409 | 37.26795 | 34942 ft | 467 kts | 0° |
| 2026-05-07 01:29 | 53.67919 | 37.27204 | 34939 ft | 468 kts | 1° |
| 2026-05-07 01:29 | 53.74374 | 37.27612 | 34932 ft | 468 kts | 0° |
| 2026-05-07 01:30 | 53.80864 | 37.28023 | 34937 ft | 468 kts | 0° |
| 2026-05-07 01:30 | 53.87360 | 37.28435 | 34931 ft | 469 kts | 0° |
| 2026-05-07 01:31 | 53.93838 | 37.28849 | 34928 ft | 469 kts | 0° |
| 2026-05-07 01:31 | 54.00349 | 37.29265 | 34933 ft | 469 kts | 0° |
| 2026-05-07 01:32 | 54.06850 | 37.29682 | 34927 ft | 469 kts | 0° |
| 2026-05-07 01:32 | 54.13382 | 37.30102 | 34924 ft | 470 kts | 0° |
| 2026-05-07 01:33 | 54.19890 | 37.30521 | 34921 ft | 470 kts | 0° |
| 2026-05-07 01:33 | 54.26406 | 37.30942 | 34920 ft | 471 kts | 0° |
| 2026-05-07 01:34 | 54.32908 | 37.31364 | 34919 ft | 472 kts | 0° |
| 2026-05-07 01:34 | 54.39444 | 37.31791 | 34925 ft | 471 kts | 0° |
| 2026-05-07 01:35 | 54.45963 | 37.32217 | 34923 ft | 472 kts | 0° |
| 2026-05-07 01:35 | 54.52531 | 37.32648 | 34923 ft | 472 kts | 360° |
| 2026-05-07 01:36 | 54.59099 | 37.33084 | 34922 ft | 473 kts | 1° |
| 2026-05-07 01:36 | 54.65554 | 37.34963 | 34928 ft | 476 kts | 8° |
| 2026-05-07 01:37 | 54.72062 | 37.37112 | 34924 ft | 477 kts | 8° |
| 2026-05-07 01:37 | 54.78563 | 37.39268 | 34921 ft | 477 kts | 8° |
| 2026-05-07 01:38 | 54.85048 | 37.41425 | 34913 ft | 478 kts | 8° |
| 2026-05-07 01:38 | 54.91557 | 37.43596 | 34911 ft | 478 kts | 8° |
| 2026-05-07 01:39 | 54.98071 | 37.45779 | 34907 ft | 479 kts | 8° |
| 2026-05-07 01:39 | 55.04563 | 37.47960 | 34902 ft | 479 kts | 8° |
| 2026-05-07 01:40 | 55.11090 | 37.50160 | 34905 ft | 480 kts | 8° |
| 2026-05-07 01:40 | 55.17642 | 37.52390 | 34906 ft | 481 kts | 8° |
| 2026-05-07 01:41 | 55.24184 | 37.54622 | 34908 ft | 481 kts | 8° |
| 2026-05-07 01:41 | 55.30710 | 37.56859 | 34911 ft | 481 kts | 8° |
| 2026-05-07 01:42 | 55.37257 | 37.59108 | 34915 ft | 480 kts | 8° |
| 2026-05-07 01:42 | 55.43781 | 37.61359 | 34919 ft | 480 kts | 8° |
| 2026-05-07 01:43 | 55.50333 | 37.63625 | 34921 ft | 481 kts | 8° |
| 2026-05-07 01:43 | 55.56874 | 37.65897 | 34919 ft | 481 kts | 9° |
| 2026-05-07 01:44 | 55.63424 | 37.68178 | 34919 ft | 482 kts | 9° |
| 2026-05-07 01:44 | 55.70020 | 37.69832 | 34926 ft | 480 kts | 4° |
| 2026-05-07 01:45 | 55.76633 | 37.71234 | 34918 ft | 481 kts | 4° |
| 2026-05-07 01:45 | 55.83230 | 37.72654 | 34916 ft | 481 kts | 4° |
| 2026-05-07 01:46 | 55.89876 | 37.74092 | 34916 ft | 481 kts | 4° |
| 2026-05-07 01:46 | 55.96490 | 37.75529 | 34916 ft | 481 kts | 4° |
| 2026-05-07 01:47 | 56.03134 | 37.76975 | 34916 ft | 481 kts | 4° |
| 2026-05-07 01:47 | 56.09765 | 37.78424 | 34920 ft | 483 kts | 4° |
| 2026-05-07 01:48 | 56.16374 | 37.79873 | 34917 ft | 483 kts | 4° |
| 2026-05-07 01:48 | 56.23023 | 37.81337 | 34921 ft | 484 kts | 4° |
| 2026-05-07 01:49 | 56.29698 | 37.82811 | 34921 ft | 484 kts | 4° |
| 2026-05-07 01:49 | 56.36385 | 37.84293 | 34922 ft | 485 kts | 4° |
| 2026-05-07 01:50 | 56.43038 | 37.85771 | 34916 ft | 486 kts | 4° |
| 2026-05-07 01:50 | 56.49706 | 37.87260 | 34912 ft | 485 kts | 4° |
| 2026-05-07 01:51 | 56.56407 | 37.88761 | 34920 ft | 486 kts | 4° |
| 2026-05-07 01:51 | 56.63090 | 37.90264 | 34922 ft | 487 kts | 4° |
| 2026-05-07 01:52 | 56.69769 | 37.91770 | 34924 ft | 488 kts | 4° |
| 2026-05-07 01:52 | 56.76517 | 37.93299 | 34922 ft | 489 kts | 4° |
| 2026-05-07 01:53 | 56.83239 | 37.94825 | 34925 ft | 490 kts | 4° |
| 2026-05-07 01:53 | 56.89992 | 37.96366 | 34924 ft | 490 kts | 3° |
| 2026-05-07 01:54 | 56.96728 | 37.97907 | 34935 ft | 491 kts | 4° |
| 2026-05-07 01:54 | 57.03241 | 38.01554 | 34956 ft | 501 kts | 30° |
| 2026-05-07 01:54 | 57.05970 | 38.05484 | 34957 ft | 506 kts | 44° |
| 2026-05-07 01:55 | 57.08083 | 38.10566 | 34954 ft | 507 kts | 59° |
| 2026-05-07 01:55 | 57.11840 | 38.21529 | 34948 ft | 507 kts | 56° |
| 2026-05-07 01:56 | 57.15712 | 38.32264 | 34948 ft | 506 kts | 56° |
| 2026-05-07 01:56 | 57.19630 | 38.43118 | 34949 ft | 508 kts | 56° |
| 2026-05-07 01:57 | 57.23492 | 38.53866 | 34958 ft | 509 kts | 56° |
| 2026-05-07 01:57 | 57.27393 | 38.64763 | 34961 ft | 510 kts | 55° |
| 2026-05-07 01:58 | 57.31282 | 38.75677 | 34957 ft | 510 kts | 56° |
| 2026-05-07 01:58 | 57.35148 | 38.86578 | 34968 ft | 510 kts | 57° |
| 2026-05-07 01:59 | 57.39027 | 38.97570 | 34962 ft | 510 kts | 57° |
| 2026-05-07 01:59 | 57.42880 | 39.08534 | 34970 ft | 509 kts | 56° |
| 2026-05-07 02:00 | 57.46737 | 39.19561 | 34969 ft | 511 kts | 56° |
| 2026-05-07 02:00 | 57.51308 | 39.29385 | 34978 ft | 506 kts | 38° |
| 2026-05-07 02:01 | 57.56621 | 39.37987 | 34959 ft | 508 kts | 39° |
| 2026-05-07 02:01 | 57.61919 | 39.46660 | 34985 ft | 508 kts | 39° |
| 2026-05-07 02:02 | 57.67201 | 39.55344 | 34987 ft | 509 kts | 39° |
| 2026-05-07 02:02 | 57.72480 | 39.64053 | 34993 ft | 509 kts | 39° |
| 2026-05-07 02:03 | 57.77776 | 39.72834 | 34990 ft | 509 kts | 39° |
| 2026-05-07 02:03 | 57.83059 | 39.81626 | 35013 ft | 511 kts | 39° |
| 2026-05-07 02:04 | 57.88331 | 39.90442 | 34999 ft | 509 kts | 39° |
| 2026-05-07 02:04 | 57.93563 | 39.99297 | 35019 ft | 512 kts | 39° |
| 2026-05-07 02:05 | 57.98854 | 40.08283 | 35013 ft | 512 kts | 39° |
| 2026-05-07 02:05 | 58.04102 | 40.17233 | 35012 ft | 512 kts | 39° |
| 2026-05-07 02:06 | 58.09359 | 40.26240 | 35007 ft | 512 kts | 39° |
| 2026-05-07 02:06 | 58.14594 | 40.35242 | 34997 ft | 512 kts | 39° |
| 2026-05-07 02:07 | 58.19887 | 40.44313 | 35003 ft | 512 kts | 39° |
| 2026-05-07 02:07 | 58.27774 | 40.57824 | 35018 ft | 513 kts | 38° |
| 2026-05-07 02:08 | 58.33033 | 40.66879 | 35013 ft | 513 kts | 39° |
| 2026-05-07 02:08 | 58.38323 | 40.76028 | 34993 ft | 514 kts | 39° |
| 2026-05-07 02:09 | 58.43579 | 40.85155 | 34988 ft | 515 kts | 39° |
| 2026-05-07 02:09 | 58.48842 | 40.94332 | 35012 ft | 515 kts | 39° |
| 2026-05-07 02:10 | 58.54112 | 41.03569 | 35008 ft | 515 kts | 39° |
| 2026-05-07 02:10 | 58.59364 | 41.12801 | 35009 ft | 517 kts | 39° |
| 2026-05-07 02:11 | 58.64648 | 41.22141 | 35033 ft | 517 kts | 39° |
| 2026-05-07 02:11 | 58.69936 | 41.31516 | 35039 ft | 518 kts | 39° |
| 2026-05-07 02:12 | 58.75204 | 41.40906 | 35023 ft | 519 kts | 39° |
| 2026-05-07 02:12 | 58.80788 | 41.49460 | 35074 ft | 517 kts | 31° |
| 2026-05-07 02:13 | 58.86578 | 41.57688 | 35037 ft | 516 kts | 31° |
| 2026-05-07 02:13 | 58.92309 | 41.65876 | 35027 ft | 517 kts | 32° |
| 2026-05-07 02:14 | 58.98083 | 41.74156 | 35028 ft | 518 kts | 32° |
| 2026-05-07 02:14 | 59.03850 | 41.82461 | 35037 ft | 519 kts | 32° |
| 2026-05-07 02:15 | 59.09601 | 41.90784 | 35044 ft | 520 kts | 32° |
| 2026-05-07 02:15 | 59.15383 | 41.99188 | 35036 ft | 519 kts | 32° |
| 2026-05-07 02:16 | 59.21138 | 42.07583 | 35028 ft | 519 kts | 32° |
| 2026-05-07 02:16 | 59.26886 | 42.16011 | 35036 ft | 519 kts | 32° |
| 2026-05-07 02:17 | 59.32628 | 42.24464 | 35042 ft | 519 kts | 32° |
| 2026-05-07 02:17 | 59.38348 | 42.33133 | 35037 ft | 522 kts | 39° |
| 2026-05-07 02:18 | 59.43254 | 42.43573 | 35050 ft | 526 kts | 44° |
| 2026-05-07 02:18 | 59.48141 | 42.54216 | 35059 ft | 526 kts | 44° |
| 2026-05-07 02:19 | 59.53013 | 42.64873 | 35055 ft | 525 kts | 44° |
| 2026-05-07 02:19 | 59.57886 | 42.75585 | 35056 ft | 526 kts | 45° |
| 2026-05-07 02:20 | 59.62729 | 42.86275 | 35053 ft | 526 kts | 45° |
| 2026-05-07 02:20 | 59.67551 | 42.96975 | 35058 ft | 525 kts | 45° |
| 2026-05-07 02:21 | 59.72400 | 43.07786 | 35068 ft | 527 kts | 44° |
| 2026-05-07 02:21 | 59.77259 | 43.18645 | 35061 ft | 527 kts | 44° |
| 2026-05-07 02:22 | 59.82070 | 43.29427 | 35067 ft | 527 kts | 44° |
| 2026-05-07 02:22 | 59.86921 | 43.40355 | 35075 ft | 527 kts | 44° |
| 2026-05-07 02:23 | 59.91719 | 43.51208 | 35074 ft | 527 kts | 44° |
| 2026-05-07 02:23 | 59.96537 | 43.62152 | 35081 ft | 527 kts | 44° |
| 2026-05-07 02:24 | 60.01351 | 43.73124 | 35067 ft | 529 kts | 45° |
| 2026-05-07 02:24 | 60.06192 | 43.84209 | 35077 ft | 530 kts | 44° |
| 2026-05-07 02:25 | 60.10991 | 43.95251 | 35070 ft | 528 kts | 44° |
| 2026-05-07 02:25 | 60.15785 | 44.06337 | 35068 ft | 530 kts | 44° |
| 2026-05-07 02:26 | 60.20598 | 44.17516 | 35067 ft | 531 kts | 44° |
| 2026-05-07 02:26 | 60.25402 | 44.28734 | 35058 ft | 530 kts | 44° |
| 2026-05-07 02:27 | 60.30197 | 44.39982 | 35057 ft | 531 kts | 44° |
| 2026-05-07 02:27 | 60.34966 | 44.51231 | 35051 ft | 530 kts | 43° |
| 2026-05-07 02:28 | 60.39736 | 44.62529 | 35054 ft | 530 kts | 43° |
| 2026-05-07 02:28 | 60.44474 | 44.73809 | 35049 ft | 530 kts | 44° |
| 2026-05-07 02:29 | 60.49236 | 44.85208 | 35048 ft | 530 kts | 44° |
| 2026-05-07 02:29 | 60.53955 | 44.96555 | 35035 ft | 529 kts | 44° |
| 2026-05-07 02:30 | 60.58689 | 45.07994 | 35040 ft | 532 kts | 44° |
| 2026-05-07 02:30 | 60.63401 | 45.19440 | 35035 ft | 529 kts | 44° |
| 2026-05-07 02:31 | 60.65891 | 45.24839 | 35018 ft | 518 kts | 32° |
| 2026-05-07 02:31 | 60.68837 | 45.28738 | 35051 ft | 500 kts | 16° |
| 2026-05-07 02:31 | 60.72035 | 45.30880 | 35055 ft | 481 kts | 1° |
| 2026-05-07 02:31 | 60.75323 | 45.31919 | 35057 ft | 475 kts | 355° |
| 2026-05-07 02:32 | 60.78495 | 45.31676 | 35027 ft | 452 kts | 339° |
| 2026-05-07 02:32 | 60.81404 | 45.29640 | 35053 ft | 430 kts | 323° |
| 2026-05-07 02:32 | 60.83757 | 45.26249 | 35058 ft | 416 kts | 313° |
| 2026-05-07 02:32 | 60.85995 | 45.22445 | 35051 ft | 418 kts | 312° |
| 2026-05-07 02:33 | 60.90415 | 45.14792 | 35031 ft | 414 kts | 312° |
| 2026-05-07 02:33 | 60.94751 | 45.07201 | 35040 ft | 414 kts | 311° |
| 2026-05-07 02:34 | 60.99125 | 44.99508 | 35048 ft | 413 kts | 311° |
| 2026-05-07 02:34 | 61.03455 | 44.91863 | 35059 ft | 411 kts | 311° |
| 2026-05-07 02:35 | 61.07780 | 44.84198 | 35050 ft | 413 kts | 312° |
| 2026-05-07 02:35 | 61.12109 | 44.76498 | 35048 ft | 412 kts | 312° |
| 2026-05-07 02:36 | 61.16430 | 44.68784 | 35038 ft | 414 kts | 311° |
| 2026-05-07 02:36 | 61.20779 | 44.60990 | 35072 ft | 414 kts | 311° |
| 2026-05-07 02:37 | 61.25083 | 44.53251 | 35043 ft | 410 kts | 311° |
| 2026-05-07 02:37 | 61.29380 | 44.45485 | 35038 ft | 411 kts | 312° |
| 2026-05-07 02:38 | 61.33678 | 44.37694 | 35039 ft | 412 kts | 311° |
| 2026-05-07 02:38 | 61.37985 | 44.29863 | 35044 ft | 410 kts | 310° |
| 2026-05-07 02:39 | 61.42254 | 44.22066 | 35046 ft | 410 kts | 311° |
| 2026-05-07 02:39 | 61.46522 | 44.14242 | 35048 ft | 411 kts | 311° |
| 2026-05-07 02:40 | 61.50802 | 44.06366 | 35047 ft | 411 kts | 310° |
| 2026-05-07 02:40 | 61.55060 | 43.98500 | 35046 ft | 411 kts | 310° |
| 2026-05-07 02:41 | 61.59324 | 43.90595 | 35052 ft | 411 kts | 310° |
| 2026-05-07 02:41 | 61.63571 | 43.82688 | 35043 ft | 411 kts | 310° |
| 2026-05-07 02:42 | 61.67845 | 43.74696 | 35042 ft | 410 kts | 310° |
| 2026-05-07 02:42 | 61.72080 | 43.66759 | 35050 ft | 409 kts | 310° |
| 2026-05-07 02:43 | 61.76298 | 43.58814 | 35045 ft | 410 kts | 310° |
| 2026-05-07 02:43 | 61.80539 | 43.50796 | 35043 ft | 410 kts | 310° |
| 2026-05-07 02:44 | 61.84754 | 43.42803 | 35036 ft | 410 kts | 310° |
| 2026-05-07 02:44 | 61.89001 | 43.34708 | 35049 ft | 410 kts | 310° |
| 2026-05-07 02:45 | 61.93221 | 43.26639 | 35063 ft | 410 kts | 310° |
| 2026-05-07 02:45 | 61.97436 | 43.18551 | 35066 ft | 411 kts | 310° |
| 2026-05-07 02:46 | 62.01629 | 43.10469 | 35066 ft | 409 kts | 310° |
| 2026-05-07 02:46 | 62.05818 | 43.02363 | 35057 ft | 409 kts | 309° |
| 2026-05-07 02:47 | 62.10035 | 42.94173 | 35077 ft | 410 kts | 309° |
| 2026-05-07 02:47 | 62.14230 | 42.85994 | 35039 ft | 409 kts | 309° |
| 2026-05-07 02:48 | 62.18391 | 42.77845 | 35037 ft | 411 kts | 309° |
| 2026-05-07 02:48 | 62.22600 | 42.69575 | 35049 ft | 412 kts | 309° |
| 2026-05-07 02:49 | 62.26790 | 42.61307 | 35027 ft | 411 kts | 310° |
| 2026-05-07 02:49 | 62.30985 | 42.52999 | 35021 ft | 412 kts | 310° |
| 2026-05-07 02:50 | 62.35210 | 42.44591 | 35046 ft | 415 kts | 310° |
| 2026-05-07 02:50 | 62.39419 | 42.36192 | 35058 ft | 416 kts | 309° |
| 2026-05-07 02:51 | 62.43626 | 42.27755 | 35049 ft | 415 kts | 309° |
| 2026-05-07 02:51 | 62.47824 | 42.19306 | 35049 ft | 416 kts | 309° |
| 2026-05-07 02:52 | 62.52130 | 42.10976 | 35028 ft | 425 kts | 318° |
| 2026-05-07 02:52 | 62.54843 | 42.08231 | 35049 ft | 445 kts | 334° |
| 2026-05-07 02:52 | 62.58002 | 42.07240 | 35071 ft | 470 kts | 350° |
| 2026-05-07 02:53 | 62.61302 | 42.08197 | 35041 ft | 494 kts | 6° |
| 2026-05-07 02:53 | 62.64487 | 42.11101 | 35075 ft | 514 kts | 22° |
| 2026-05-07 02:53 | 62.67381 | 42.15893 | 35054 ft | 531 kts | 38° |
| 2026-05-07 02:53 | 62.69677 | 42.22201 | 35080 ft | 543 kts | 54° |
| 2026-05-07 02:54 | 62.71244 | 42.29685 | 35072 ft | 552 kts | 70° |
| 2026-05-07 02:54 | 62.71956 | 42.37868 | 35079 ft | 554 kts | 86° |
| 2026-05-07 02:54 | 62.71755 | 42.46231 | 35075 ft | 553 kts | 102° |
| 2026-05-07 02:54 | 62.70663 | 42.54115 | 35103 ft | 545 kts | 118° |
| 2026-05-07 02:55 | 62.68773 | 42.61072 | 35095 ft | 532 kts | 134° |
| 2026-05-07 02:55 | 62.66213 | 42.66694 | 35078 ft | 517 kts | 149° |
| 2026-05-07 02:55 | 62.60567 | 42.76162 | 35057 ft | 515 kts | 151° |
| 2026-05-07 02:56 | 62.54910 | 42.85579 | 35080 ft | 515 kts | 150° |
| 2026-05-07 02:56 | 62.49240 | 42.94953 | 35075 ft | 517 kts | 150° |
| 2026-05-07 02:57 | 62.43536 | 43.04343 | 35070 ft | 515 kts | 151° |
| 2026-05-07 02:57 | 62.37873 | 43.13604 | 35063 ft | 515 kts | 151° |
| 2026-05-07 02:58 | 62.32176 | 43.22863 | 35064 ft | 515 kts | 151° |
| 2026-05-07 02:58 | 62.27135 | 43.33933 | 35043 ft | 539 kts | 126° |
| 2026-05-07 02:59 | 62.25580 | 43.41329 | 35090 ft | 549 kts | 112° |
| 2026-05-07 02:59 | 62.24248 | 43.48936 | 35073 ft | 550 kts | 116° |
| 2026-05-07 02:59 | 62.21295 | 43.63961 | 35056 ft | 548 kts | 117° |
| 2026-05-07 03:00 | 62.18292 | 43.78851 | 35066 ft | 548 kts | 117° |
| 2026-05-07 03:00 | 62.15248 | 43.93799 | 35045 ft | 548 kts | 118° |
| 2026-05-07 03:01 | 62.12218 | 44.08567 | 35070 ft | 547 kts | 118° |
| 2026-05-07 03:01 | 62.09158 | 44.23386 | 35040 ft | 547 kts | 118° |
| 2026-05-07 03:02 | 62.06068 | 44.38226 | 35054 ft | 548 kts | 118° |
| 2026-05-07 03:02 | 62.02980 | 44.52965 | 35061 ft | 547 kts | 117° |
| 2026-05-07 03:03 | 61.99884 | 44.67629 | 35069 ft | 548 kts | 118° |
| 2026-05-07 03:03 | 61.96755 | 44.82348 | 35064 ft | 548 kts | 119° |
| 2026-05-07 03:04 | 61.93624 | 44.96973 | 35063 ft | 546 kts | 119° |
| 2026-05-07 03:04 | 61.90475 | 45.11590 | 35062 ft | 547 kts | 119° |
| 2026-05-07 03:05 | 61.87312 | 45.26150 | 35064 ft | 547 kts | 119° |
| 2026-05-07 03:05 | 61.84138 | 45.40674 | 35066 ft | 545 kts | 118° |
| 2026-05-07 03:06 | 61.80947 | 45.55174 | 35055 ft | 545 kts | 118° |
| 2026-05-07 03:06 | 61.77757 | 45.69586 | 35068 ft | 545 kts | 120° |
| 2026-05-07 03:07 | 61.74554 | 45.83927 | 35045 ft | 542 kts | 120° |
| 2026-05-07 03:07 | 61.71327 | 45.98288 | 35034 ft | 544 kts | 120° |
| 2026-05-07 03:08 | 61.68089 | 46.12613 | 35045 ft | 545 kts | 120° |
| 2026-05-07 03:08 | 61.64844 | 46.26869 | 35062 ft | 544 kts | 120° |
| 2026-05-07 03:09 | 61.61576 | 46.41128 | 35056 ft | 544 kts | 120° |
| 2026-05-07 03:09 | 61.58295 | 46.55353 | 35059 ft | 544 kts | 120° |
| 2026-05-07 03:10 | 61.55007 | 46.69511 | 35045 ft | 544 kts | 120° |
| 2026-05-07 03:10 | 61.51702 | 46.83643 | 35039 ft | 542 kts | 121° |
| 2026-05-07 03:11 | 61.48383 | 46.97752 | 35053 ft | 543 kts | 121° |
| 2026-05-07 03:11 | 61.45443 | 47.12223 | 35045 ft | 551 kts | 104° |
| 2026-05-07 03:12 | 61.45042 | 47.20207 | 35061 ft | 553 kts | 89° |
| 2026-05-07 03:12 | 61.45512 | 47.28067 | 35050 ft | 551 kts | 73° |
| 2026-05-07 03:12 | 61.46851 | 47.35541 | 35068 ft | 543 kts | 57° |
| 2026-05-07 03:12 | 61.48943 | 47.41929 | 35039 ft | 530 kts | 41° |
| 2026-05-07 03:13 | 61.54055 | 47.52729 | 35034 ft | 533 kts | 44° |
| 2026-05-07 03:13 | 61.58632 | 47.64943 | 35023 ft | 535 kts | 46° |
| 2026-05-07 03:14 | 61.63123 | 47.77319 | 35012 ft | 535 kts | 47° |
| 2026-05-07 03:15 | 61.69839 | 47.95994 | 34993 ft | 536 kts | 47° |
| 2026-05-07 03:15 | 61.74307 | 48.08499 | 35006 ft | 535 kts | 47° |
| 2026-05-07 03:16 | 61.78774 | 48.21080 | 35016 ft | 536 kts | 47° |
| 2026-05-07 03:16 | 61.83195 | 48.33591 | 35015 ft | 538 kts | 47° |
| 2026-05-07 03:17 | 61.87646 | 48.46254 | 35012 ft | 536 kts | 47° |
| 2026-05-07 03:17 | 61.92068 | 48.58915 | 35023 ft | 539 kts | 47° |
| 2026-05-07 03:18 | 61.96496 | 48.71656 | 34996 ft | 538 kts | 48° |
| 2026-05-07 03:18 | 62.00900 | 48.84400 | 34984 ft | 539 kts | 48° |
| 2026-05-07 03:19 | 62.05328 | 48.97286 | 34998 ft | 538 kts | 48° |
| 2026-05-07 03:19 | 62.09692 | 49.10058 | 34978 ft | 537 kts | 48° |
| 2026-05-07 03:20 | 62.14087 | 49.22912 | 34974 ft | 537 kts | 48° |
| 2026-05-07 03:20 | 62.18467 | 49.35782 | 34986 ft | 539 kts | 48° |
| 2026-05-07 03:21 | 62.22845 | 49.48720 | 34975 ft | 537 kts | 48° |
| 2026-05-07 03:21 | 62.27197 | 49.61646 | 34968 ft | 537 kts | 48° |
| 2026-05-07 03:22 | 62.31559 | 49.74678 | 34956 ft | 538 kts | 49° |
| 2026-05-07 03:22 | 62.35878 | 49.87657 | 34954 ft | 540 kts | 49° |
| 2026-05-07 03:23 | 62.40213 | 50.00759 | 34952 ft | 537 kts | 48° |
| 2026-05-07 03:23 | 62.44517 | 50.13846 | 34961 ft | 538 kts | 49° |
| 2026-05-07 03:24 | 62.48823 | 50.27010 | 34965 ft | 537 kts | 48° |
| 2026-05-07 03:24 | 62.53109 | 50.40192 | 34945 ft | 537 kts | 48° |
| 2026-05-07 03:25 | 62.57386 | 50.53302 | 34951 ft | 539 kts | 48° |
| 2026-05-07 03:25 | 62.61716 | 50.66578 | 34959 ft | 538 kts | 49° |
| 2026-05-07 03:26 | 62.66000 | 50.79784 | 34934 ft | 539 kts | 49° |
| 2026-05-07 03:26 | 62.70275 | 50.93042 | 34915 ft | 540 kts | 49° |
| 2026-05-07 03:27 | 62.74542 | 51.06363 | 34919 ft | 539 kts | 49° |
| 2026-05-07 03:27 | 62.78779 | 51.19737 | 34907 ft | 540 kts | 49° |
| 2026-05-07 03:28 | 62.83038 | 51.33263 | 34904 ft | 538 kts | 49° |
| 2026-05-07 03:28 | 62.87235 | 51.46664 | 34919 ft | 540 kts | 50° |
| 2026-05-07 03:29 | 62.91441 | 51.60188 | 34900 ft | 537 kts | 49° |
| 2026-05-07 03:29 | 62.95632 | 51.73731 | 34887 ft | 538 kts | 50° |
| 2026-05-07 03:30 | 62.99786 | 51.87236 | 34881 ft | 540 kts | 51° |
| 2026-05-07 03:30 | 63.03978 | 52.00952 | 34857 ft | 539 kts | 51° |
| 2026-05-07 03:31 | 63.08114 | 52.14574 | 34849 ft | 537 kts | 50° |
| 2026-05-07 03:31 | 63.12223 | 52.28178 | 34881 ft | 537 kts | 50° |
| 2026-05-07 03:32 | 63.16324 | 52.41834 | 34870 ft | 538 kts | 51° |
| 2026-05-07 03:32 | 63.20421 | 52.55607 | 34894 ft | 536 kts | 51° |
| 2026-05-07 03:33 | 63.24486 | 52.69400 | 34859 ft | 536 kts | 51° |
| 2026-05-07 03:33 | 63.28536 | 52.83217 | 34865 ft | 535 kts | 52° |
| 2026-05-07 03:34 | 63.32556 | 52.97011 | 34859 ft | 536 kts | 52° |
| 2026-05-07 03:34 | 63.36591 | 53.10945 | 34858 ft | 537 kts | 52° |
| 2026-05-07 03:35 | 63.40584 | 53.24824 | 34875 ft | 535 kts | 52° |
| 2026-05-07 03:35 | 63.44581 | 53.38802 | 34858 ft | 534 kts | 52° |
| 2026-05-07 03:36 | 63.48544 | 53.52737 | 34837 ft | 535 kts | 52° |
| 2026-05-07 03:36 | 63.52496 | 53.66731 | 34847 ft | 534 kts | 53° |
| 2026-05-07 03:37 | 63.56321 | 53.80942 | 34824 ft | 540 kts | 61° |
| 2026-05-07 03:37 | 63.59273 | 53.96334 | 34832 ft | 543 kts | 63° |
| 2026-05-07 03:38 | 63.62204 | 54.11838 | 34835 ft | 540 kts | 63° |
| 2026-05-07 03:38 | 63.65105 | 54.27296 | 34827 ft | 540 kts | 63° |
| 2026-05-07 03:39 | 63.67995 | 54.42825 | 34810 ft | 539 kts | 63° |
| 2026-05-07 03:39 | 63.70877 | 54.58436 | 34821 ft | 540 kts | 63° |
| 2026-05-07 03:40 | 63.73725 | 54.73983 | 34815 ft | 539 kts | 64° |
| 2026-05-07 03:40 | 63.76555 | 54.89545 | 34800 ft | 539 kts | 64° |
| 2026-05-07 03:41 | 63.79364 | 55.05144 | 34795 ft | 539 kts | 64° |
| 2026-05-07 03:41 | 63.82173 | 55.20838 | 34790 ft | 539 kts | 65° |
| 2026-05-07 03:42 | 63.84964 | 55.36540 | 34798 ft | 538 kts | 64° |
| 2026-05-07 03:42 | 63.87734 | 55.52197 | 34802 ft | 537 kts | 64° |
| 2026-05-07 03:43 | 63.90479 | 55.67836 | 34816 ft | 536 kts | 65° |
| 2026-05-07 03:43 | 63.93220 | 55.83573 | 34794 ft | 538 kts | 65° |
| 2026-05-07 03:44 | 63.95935 | 55.99291 | 34787 ft | 538 kts | 66° |
| 2026-05-07 03:44 | 63.98638 | 56.15071 | 34777 ft | 538 kts | 66° |
| 2026-05-07 03:45 | 64.01327 | 56.30872 | 34767 ft | 537 kts | 66° |
| 2026-05-07 03:45 | 64.03989 | 56.46572 | 34770 ft | 535 kts | 66° |
| 2026-05-07 03:46 | 64.06647 | 56.62380 | 34771 ft | 536 kts | 66° |
| 2026-05-07 03:46 | 64.09295 | 56.78240 | 34751 ft | 537 kts | 67° |
| 2026-05-07 03:47 | 64.11924 | 56.94144 | 34744 ft | 535 kts | 67° |
| 2026-05-07 03:47 | 64.14519 | 57.09954 | 34755 ft | 536 kts | 67° |
| 2026-05-07 03:48 | 64.17119 | 57.25946 | 34756 ft | 537 kts | 67° |
| 2026-05-07 03:48 | 64.19688 | 57.41887 | 34754 ft | 536 kts | 67° |
| 2026-05-07 03:49 | 64.22248 | 57.57900 | 34748 ft | 536 kts | 67° |
| 2026-05-07 03:49 | 64.24792 | 57.73955 | 34740 ft | 536 kts | 68° |
| 2026-05-07 03:50 | 64.27300 | 57.89933 | 34732 ft | 535 kts | 68° |
| 2026-05-07 03:50 | 64.29810 | 58.06049 | 34731 ft | 536 kts | 68° |
| 2026-05-07 03:51 | 64.32302 | 58.22200 | 34724 ft | 536 kts | 68° |
| 2026-05-07 03:51 | 64.34786 | 58.38291 | 34734 ft | 535 kts | 68° |
| 2026-05-07 03:52 | 64.37241 | 58.54314 | 34720 ft | 535 kts | 68° |
| 2026-05-07 03:52 | 64.39698 | 58.70499 | 34706 ft | 534 kts | 69° |
| 2026-05-07 03:53 | 64.42116 | 58.86565 | 34697 ft | 534 kts | 69° |
| 2026-05-07 03:53 | 64.44520 | 59.02694 | 34678 ft | 534 kts | 69° |
| 2026-05-07 03:54 | 64.46933 | 59.19026 | 34642 ft | 535 kts | 70° |
| 2026-05-07 03:54 | 64.49303 | 59.35227 | 34610 ft | 536 kts | 69° |
| 2026-05-07 03:55 | 64.51672 | 59.51563 | 34606 ft | 536 kts | 69° |
| 2026-05-07 03:55 | 64.54019 | 59.67906 | 34629 ft | 536 kts | 70° |
| 2026-05-07 03:56 | 64.56342 | 59.84218 | 34631 ft | 536 kts | 70° |
| 2026-05-07 03:56 | 64.58659 | 60.00665 | 34622 ft | 537 kts | 70° |
| 2026-05-07 03:57 | 64.60961 | 60.17153 | 34642 ft | 537 kts | 71° |
| 2026-05-07 03:57 | 64.63238 | 60.33610 | 34658 ft | 536 kts | 71° |
| 2026-05-07 03:58 | 64.65520 | 60.49998 | 34633 ft | 535 kts | 70° |
| 2026-05-07 03:58 | 64.67794 | 60.66490 | 34635 ft | 536 kts | 71° |
| 2026-05-07 03:59 | 64.70052 | 60.83030 | 34620 ft | 536 kts | 72° |
| 2026-05-07 03:59 | 64.72293 | 60.99615 | 34603 ft | 536 kts | 71° |
| 2026-05-07 04:00 | 64.74497 | 61.16079 | 34608 ft | 536 kts | 72° |
| 2026-05-07 04:00 | 64.76706 | 61.32755 | 34606 ft | 535 kts | 72° |
| 2026-05-07 04:01 | 64.78876 | 61.49296 | 34619 ft | 535 kts | 72° |
| 2026-05-07 04:01 | 64.81036 | 61.65944 | 34620 ft | 535 kts | 73° |
| 2026-05-07 04:02 | 64.83182 | 61.82635 | 34627 ft | 534 kts | 73° |
| 2026-05-07 04:02 | 64.85294 | 61.99246 | 34632 ft | 534 kts | 73° |
| 2026-05-07 04:03 | 64.87395 | 62.15930 | 34624 ft | 535 kts | 73° |
| 2026-05-07 04:03 | 64.89474 | 62.32621 | 34620 ft | 536 kts | 73° |
| 2026-05-07 04:04 | 64.91539 | 62.49378 | 34617 ft | 535 kts | 73° |
| 2026-05-07 04:04 | 64.93600 | 62.66282 | 34605 ft | 535 kts | 74° |
| 2026-05-07 04:05 | 64.95614 | 62.82968 | 34608 ft | 534 kts | 74° |
| 2026-05-07 04:05 | 64.97625 | 62.99829 | 34606 ft | 535 kts | 74° |
| 2026-05-07 04:06 | 64.99617 | 63.16704 | 34606 ft | 535 kts | 74° |
| 2026-05-07 04:06 | 65.01576 | 63.33501 | 34609 ft | 534 kts | 74° |
| 2026-05-07 04:07 | 65.03526 | 63.50391 | 34619 ft | 535 kts | 74° |
| 2026-05-07 04:07 | 65.05462 | 63.67357 | 34617 ft | 535 kts | 75° |
| 2026-05-07 04:08 | 65.07377 | 63.84325 | 34619 ft | 536 kts | 75° |
| 2026-05-07 04:08 | 65.09264 | 64.01239 | 34610 ft | 535 kts | 76° |
| 2026-05-07 04:09 | 65.11141 | 64.18265 | 34609 ft | 536 kts | 76° |
| 2026-05-07 04:09 | 65.12996 | 64.35300 | 34600 ft | 537 kts | 76° |
| 2026-05-07 04:10 | 65.14844 | 64.52452 | 34604 ft | 537 kts | 76° |
| 2026-05-07 04:10 | 65.16660 | 64.69518 | 34600 ft | 536 kts | 77° |
| 2026-05-07 04:11 | 65.18465 | 64.86715 | 34601 ft | 538 kts | 77° |
| 2026-05-07 04:11 | 65.20251 | 65.03896 | 34578 ft | 538 kts | 77° |
| 2026-05-07 04:12 | 65.22021 | 65.21180 | 34586 ft | 537 kts | 77° |
| 2026-05-07 04:12 | 65.23762 | 65.38386 | 34587 ft | 537 kts | 77° |
| 2026-05-07 04:13 | 65.25487 | 65.55636 | 34585 ft | 538 kts | 77° |
| 2026-05-07 04:13 | 65.27196 | 65.72926 | 34578 ft | 537 kts | 78° |
| 2026-05-07 04:14 | 65.28867 | 65.90202 | 34582 ft | 538 kts | 78° |
| 2026-05-07 04:14 | 65.30528 | 66.07606 | 34589 ft | 537 kts | 78° |
| 2026-05-07 04:15 | 65.32157 | 66.24934 | 34573 ft | 538 kts | 78° |
| 2026-05-07 04:15 | 65.33762 | 66.42240 | 34569 ft | 538 kts | 78° |
| 2026-05-07 04:16 | 65.35354 | 66.59626 | 34566 ft | 538 kts | 78° |
| 2026-05-07 04:16 | 65.36961 | 66.77158 | 34557 ft | 538 kts | 79° |
| 2026-05-07 04:17 | 65.38544 | 66.94546 | 34548 ft | 537 kts | 79° |
| 2026-05-07 04:17 | 65.40102 | 67.11890 | 34549 ft | 537 kts | 79° |
| 2026-05-07 04:18 | 65.41651 | 67.29394 | 34549 ft | 537 kts | 79° |
| 2026-05-07 04:18 | 65.43172 | 67.46831 | 34537 ft | 537 kts | 79° |
| 2026-05-07 04:19 | 65.44676 | 67.64298 | 34539 ft | 537 kts | 79° |
| 2026-05-07 04:19 | 65.46156 | 67.81789 | 34542 ft | 536 kts | 81° |
| 2026-05-07 04:20 | 65.47620 | 67.99298 | 34531 ft | 535 kts | 81° |
| 2026-05-07 04:20 | 65.49058 | 68.16780 | 34521 ft | 535 kts | 81° |
| 2026-05-07 04:21 | 65.51186 | 68.43153 | 34528 ft | 535 kts | 80° |
| 2026-05-07 04:21 | 65.52576 | 68.60695 | 34518 ft | 535 kts | 81° |
| 2026-05-07 04:22 | 65.53942 | 68.78245 | 34505 ft | 538 kts | 82° |
| 2026-05-07 04:22 | 65.55297 | 68.95917 | 34514 ft | 537 kts | 82° |
| 2026-05-07 04:23 | 65.56630 | 69.13567 | 34525 ft | 537 kts | 82° |
| 2026-05-07 04:23 | 65.57941 | 69.31236 | 34501 ft | 538 kts | 82° |
| 2026-05-07 04:24 | 65.59232 | 69.48917 | 34504 ft | 538 kts | 82° |
| 2026-05-07 04:24 | 65.60508 | 69.66718 | 34494 ft | 537 kts | 83° |
| 2026-05-07 04:25 | 65.61753 | 69.84379 | 34493 ft | 536 kts | 83° |
| 2026-05-07 04:25 | 65.62979 | 70.02067 | 34481 ft | 538 kts | 83° |
| 2026-05-07 04:26 | 65.64190 | 70.19888 | 34471 ft | 537 kts | 83° |
| 2026-05-07 04:26 | 65.65379 | 70.37656 | 34461 ft | 537 kts | 83° |
| 2026-05-07 04:27 | 65.66544 | 70.55395 | 34451 ft | 538 kts | 83° |
| 2026-05-07 04:27 | 65.67628 | 70.73270 | 34478 ft | 536 kts | 84° |
| 2026-05-07 04:28 | 65.68676 | 70.91104 | 34477 ft | 537 kts | 84° |
| 2026-05-07 04:28 | 65.69707 | 71.09013 | 34480 ft | 538 kts | 84° |
| 2026-05-07 04:29 | 65.70721 | 71.26960 | 34477 ft | 537 kts | 84° |
| 2026-05-07 04:29 | 65.71700 | 71.44714 | 34458 ft | 535 kts | 84° |
| 2026-05-07 04:30 | 65.72665 | 71.62588 | 34467 ft | 534 kts | 84° |
| 2026-05-07 04:30 | 65.73606 | 71.80402 | 34463 ft | 535 kts | 85° |
| 2026-05-07 04:31 | 65.74527 | 71.98295 | 34470 ft | 534 kts | 85° |
| 2026-05-07 04:31 | 65.75421 | 72.16032 | 34464 ft | 533 kts | 85° |
| 2026-05-07 04:32 | 65.76299 | 72.33897 | 34459 ft | 533 kts | 85° |
| 2026-05-07 04:32 | 65.77156 | 72.51767 | 34478 ft | 534 kts | 85° |
| 2026-05-07 04:33 | 65.77994 | 72.69589 | 34458 ft | 532 kts | 86° |
| 2026-05-07 04:33 | 65.78815 | 72.87468 | 34444 ft | 532 kts | 86° |
| 2026-05-07 04:34 | 65.79610 | 73.05306 | 34428 ft | 533 kts | 86° |
| 2026-05-07 04:34 | 65.80385 | 73.23137 | 34424 ft | 532 kts | 86° |
| 2026-05-07 04:35 | 65.81141 | 73.41016 | 34419 ft | 533 kts | 86° |
| 2026-05-07 04:35 | 65.81878 | 73.58910 | 34410 ft | 532 kts | 86° |
| 2026-05-07 04:36 | 65.82569 | 73.76843 | 34413 ft | 531 kts | 88° |
| 2026-05-07 04:36 | 65.83235 | 73.94665 | 34412 ft | 531 kts | 88° |
| 2026-05-07 04:37 | 65.83882 | 74.12529 | 34404 ft | 532 kts | 88° |
| 2026-05-07 04:37 | 65.84511 | 74.30467 | 34409 ft | 531 kts | 88° |
| 2026-05-07 04:38 | 65.85120 | 74.48308 | 34426 ft | 530 kts | 87° |
| 2026-05-07 04:38 | 65.85798 | 74.66156 | 34425 ft | 530 kts | 88° |
| 2026-05-07 04:39 | 65.86454 | 74.84058 | 34423 ft | 530 kts | 88° |
| 2026-05-07 04:39 | 65.87085 | 75.01952 | 34419 ft | 530 kts | 88° |
| 2026-05-07 04:40 | 65.87696 | 75.19792 | 34418 ft | 531 kts | 88° |
| 2026-05-07 04:40 | 65.88289 | 75.37749 | 34408 ft | 531 kts | 88° |
| 2026-05-07 04:41 | 65.88860 | 75.55649 | 34395 ft | 532 kts | 88° |
| 2026-05-07 04:41 | 65.89410 | 75.73558 | 34396 ft | 531 kts | 89° |
| 2026-05-07 04:42 | 65.89938 | 75.91505 | 34398 ft | 533 kts | 89° |
| 2026-05-07 04:42 | 65.90448 | 76.09557 | 34411 ft | 534 kts | 89° |
| 2026-05-07 04:43 | 65.90938 | 76.27582 | 34396 ft | 534 kts | 89° |
| 2026-05-07 04:43 | 65.91406 | 76.45671 | 34405 ft | 534 kts | 89° |
| 2026-05-07 04:44 | 65.91852 | 76.63609 | 34410 ft | 531 kts | 89° |
| 2026-05-07 04:44 | 65.92276 | 76.81647 | 34390 ft | 532 kts | 89° |
| 2026-05-07 04:45 | 65.92677 | 76.99556 | 34420 ft | 531 kts | 89° |
| 2026-05-07 04:45 | 65.93060 | 77.17553 | 34403 ft | 531 kts | 89° |
| 2026-05-07 04:46 | 65.93420 | 77.35593 | 34404 ft | 532 kts | 89° |
| 2026-05-07 04:46 | 65.93761 | 77.53589 | 34424 ft | 531 kts | 89° |
| 2026-05-07 04:47 | 65.94080 | 77.71542 | 34421 ft | 530 kts | 90° |
| 2026-05-07 04:47 | 65.94380 | 77.89608 | 34434 ft | 530 kts | 90° |
| 2026-05-07 04:48 | 65.94654 | 78.07551 | 34433 ft | 530 kts | 90° |
| 2026-05-07 04:48 | 65.94909 | 78.25540 | 34421 ft | 529 kts | 90° |
| 2026-05-07 04:49 | 65.95158 | 78.43443 | 34416 ft | 530 kts | 89° |
| 2026-05-07 04:49 | 65.95419 | 78.61475 | 34421 ft | 531 kts | 89° |
| 2026-05-07 04:50 | 65.95655 | 78.79366 | 34414 ft | 528 kts | 90° |
| 2026-05-07 04:50 | 65.95873 | 78.97370 | 34426 ft | 529 kts | 90° |
| 2026-05-07 04:51 | 65.96069 | 79.15292 | 34413 ft | 528 kts | 90° |
| 2026-05-07 04:51 | 65.96244 | 79.33215 | 34433 ft | 528 kts | 91° |
| 2026-05-07 04:52 | 65.96395 | 79.51084 | 34451 ft | 528 kts | 90° |
| 2026-05-07 04:52 | 65.96529 | 79.69050 | 34447 ft | 526 kts | 92° |
| 2026-05-07 04:53 | 65.96640 | 79.86879 | 34455 ft | 526 kts | 92° |
| 2026-05-07 04:53 | 65.96731 | 80.04679 | 34456 ft | 526 kts | 92° |
| 2026-05-07 04:54 | 65.96800 | 80.22621 | 34456 ft | 528 kts | 91° |
| 2026-05-07 04:54 | 65.96849 | 80.40548 | 34463 ft | 529 kts | 92° |
| 2026-05-07 04:55 | 65.96878 | 80.58561 | 34464 ft | 530 kts | 92° |
| 2026-05-07 04:55 | 65.96885 | 80.76564 | 34466 ft | 531 kts | 92° |
| 2026-05-07 04:56 | 65.96870 | 80.94611 | 34482 ft | 530 kts | 92° |
| 2026-05-07 04:56 | 65.96837 | 81.12534 | 34470 ft | 531 kts | 92° |
| 2026-05-07 04:57 | 65.96780 | 81.30559 | 34481 ft | 532 kts | 92° |
| 2026-05-07 04:57 | 65.96704 | 81.48575 | 34473 ft | 531 kts | 92° |
| 2026-05-07 04:58 | 65.96604 | 81.66710 | 34481 ft | 533 kts | 94° |
| 2026-05-07 04:58 | 65.96487 | 81.84757 | 34474 ft | 533 kts | 94° |
| 2026-05-07 04:59 | 65.96346 | 82.02864 | 34492 ft | 534 kts | 93° |
| 2026-05-07 04:59 | 65.96184 | 82.20974 | 34492 ft | 533 kts | 94° |
| 2026-05-07 05:00 | 65.96001 | 82.39020 | 34494 ft | 532 kts | 94° |
| 2026-05-07 05:00 | 65.95795 | 82.57157 | 34506 ft | 532 kts | 93° |
| 2026-05-07 05:01 | 65.95571 | 82.75097 | 34504 ft | 531 kts | 94° |
| 2026-05-07 05:01 | 65.95325 | 82.93148 | 34508 ft | 529 kts | 94° |
| 2026-05-07 05:02 | 65.95059 | 83.11032 | 34516 ft | 529 kts | 94° |
| 2026-05-07 05:02 | 65.94772 | 83.28976 | 34520 ft | 530 kts | 94° |
| 2026-05-07 05:03 | 65.94466 | 83.46988 | 34533 ft | 530 kts | 94° |
| 2026-05-07 05:03 | 65.94137 | 83.64831 | 34525 ft | 529 kts | 94° |
| 2026-05-07 05:04 | 65.93789 | 83.82809 | 34527 ft | 529 kts | 94° |
| 2026-05-07 05:04 | 65.93421 | 84.00717 | 34531 ft | 530 kts | 95° |
| 2026-05-07 05:05 | 65.93027 | 84.18753 | 34540 ft | 531 kts | 94° |
| 2026-05-07 05:05 | 65.92616 | 84.36589 | 34545 ft | 530 kts | 94° |
| 2026-05-07 05:06 | 65.92182 | 84.54549 | 34547 ft | 530 kts | 94° |
| 2026-05-07 05:06 | 65.91728 | 84.72508 | 34546 ft | 530 kts | 95° |
| 2026-05-07 05:07 | 65.91251 | 84.90501 | 34552 ft | 532 kts | 95° |
| 2026-05-07 05:07 | 65.90757 | 85.08420 | 34547 ft | 532 kts | 95° |
| 2026-05-07 05:08 | 65.90235 | 85.26477 | 34549 ft | 533 kts | 95° |
| 2026-05-07 05:08 | 65.89696 | 85.44473 | 34556 ft | 535 kts | 95° |
| 2026-05-07 05:09 | 65.89130 | 85.62545 | 34560 ft | 536 kts | 95° |
| 2026-05-07 05:09 | 65.88544 | 85.80615 | 34553 ft | 535 kts | 95° |
| 2026-05-07 05:10 | 65.87941 | 85.98558 | 34553 ft | 535 kts | 96° |
| 2026-05-07 05:10 | 65.87310 | 86.16636 | 34569 ft | 535 kts | 95° |
| 2026-05-07 05:11 | 65.86661 | 86.34708 | 34583 ft | 534 kts | 95° |
| 2026-05-07 05:11 | 65.85994 | 86.52665 | 34585 ft | 533 kts | 95° |
| 2026-05-07 05:12 | 65.85306 | 86.70568 | 34586 ft | 533 kts | 96° |
| 2026-05-07 05:12 | 65.84596 | 86.88519 | 34589 ft | 533 kts | 96° |
| 2026-05-07 05:13 | 65.83868 | 87.06396 | 34597 ft | 531 kts | 96° |
| 2026-05-07 05:13 | 65.83119 | 87.24229 | 34604 ft | 532 kts | 96° |
| 2026-05-07 05:14 | 65.82352 | 87.42026 | 34606 ft | 531 kts | 96° |
| 2026-05-07 05:14 | 65.81557 | 87.59946 | 34618 ft | 531 kts | 96° |
| 2026-05-07 05:15 | 65.80753 | 87.77666 | 34618 ft | 530 kts | 97° |
| 2026-05-07 05:15 | 65.79938 | 87.95407 | 34634 ft | 529 kts | 95° |
| 2026-05-07 05:16 | 65.79376 | 88.13142 | 34637 ft | 527 kts | 94° |
| 2026-05-07 05:16 | 65.78782 | 88.30856 | 34630 ft | 528 kts | 94° |
| 2026-05-07 05:17 | 65.78164 | 88.48672 | 34624 ft | 529 kts | 94° |
| 2026-05-07 05:17 | 65.77527 | 88.66371 | 34624 ft | 527 kts | 95° |
| 2026-05-07 05:18 | 65.76871 | 88.84030 | 34633 ft | 528 kts | 95° |
| 2026-05-07 05:18 | 65.76189 | 89.01885 | 34624 ft | 529 kts | 95° |
| 2026-05-07 05:19 | 65.75491 | 89.19553 | 34614 ft | 529 kts | 95° |
| 2026-05-07 05:19 | 65.74770 | 89.37273 | 34622 ft | 528 kts | 94° |
| 2026-05-07 05:20 | 65.74033 | 89.54918 | 34627 ft | 528 kts | 94° |
| 2026-05-07 05:20 | 65.73272 | 89.72609 | 34616 ft | 528 kts | 96° |
| 2026-05-07 05:21 | 65.72096 | 89.99027 | 34618 ft | 528 kts | 95° |
| 2026-05-07 05:22 | 65.71281 | 90.16753 | 34627 ft | 529 kts | 95° |
| 2026-05-07 05:22 | 65.70448 | 90.34440 | 34637 ft | 530 kts | 95° |
| 2026-05-07 05:23 | 65.69595 | 90.52090 | 34634 ft | 531 kts | 96° |
| 2026-05-07 05:23 | 65.68716 | 90.69807 | 34635 ft | 530 kts | 96° |
| 2026-05-07 05:24 | 65.67821 | 90.87447 | 34630 ft | 532 kts | 96° |
| 2026-05-07 05:24 | 65.66900 | 91.05187 | 34631 ft | 532 kts | 96° |
| 2026-05-07 05:25 | 65.65958 | 91.22925 | 34637 ft | 531 kts | 97° |
| 2026-05-07 05:25 | 65.64997 | 91.40597 | 34649 ft | 531 kts | 97° |
| 2026-05-07 05:26 | 65.64023 | 91.58164 | 34648 ft | 531 kts | 96° |
| 2026-05-07 05:26 | 65.63022 | 91.75819 | 34649 ft | 531 kts | 98° |
| 2026-05-07 05:27 | 65.62000 | 91.93467 | 34651 ft | 532 kts | 97° |
| 2026-05-07 05:27 | 65.60955 | 92.11140 | 34653 ft | 532 kts | 97° |
| 2026-05-07 05:28 | 65.59896 | 92.28666 | 34662 ft | 531 kts | 97° |
| 2026-05-07 05:28 | 65.58813 | 92.46294 | 34672 ft | 531 kts | 97° |
| 2026-05-07 05:29 | 65.57716 | 92.63773 | 34682 ft | 529 kts | 97° |
| 2026-05-07 05:29 | 65.56595 | 92.81300 | 34676 ft | 528 kts | 98° |
| 2026-05-07 05:30 | 65.55457 | 92.98743 | 34689 ft | 528 kts | 98° |
| 2026-05-07 05:30 | 65.54308 | 93.16080 | 34687 ft | 528 kts | 98° |
| 2026-05-07 05:31 | 65.53127 | 93.33574 | 34684 ft | 528 kts | 98° |
| 2026-05-07 05:31 | 65.51932 | 93.50945 | 34687 ft | 527 kts | 98° |
| 2026-05-07 05:32 | 65.50720 | 93.68261 | 34665 ft | 527 kts | 99° |
| 2026-05-07 05:32 | 65.49487 | 93.85598 | 34650 ft | 526 kts | 99° |
| 2026-05-07 05:33 | 65.48235 | 94.02887 | 34669 ft | 528 kts | 99° |
| 2026-05-07 05:33 | 65.46966 | 94.20132 | 34677 ft | 528 kts | 99° |
| 2026-05-07 05:34 | 65.45672 | 94.37451 | 34681 ft | 527 kts | 99° |
| 2026-05-07 05:34 | 65.44325 | 94.54658 | 34672 ft | 527 kts | 103° |
| 2026-05-07 05:35 | 65.43056 | 94.71845 | 34690 ft | 527 kts | 99° |
| 2026-05-07 05:35 | 65.41801 | 94.89195 | 34680 ft | 527 kts | 100° |
| 2026-05-07 05:36 | 65.40503 | 95.06304 | 34681 ft | 526 kts | 100° |
| 2026-05-07 05:36 | 65.39173 | 95.23544 | 34696 ft | 525 kts | 100° |
| 2026-05-07 05:37 | 65.37829 | 95.40691 | 34693 ft | 526 kts | 99° |
| 2026-05-07 05:37 | 65.36463 | 95.57853 | 34699 ft | 526 kts | 100° |
| 2026-05-07 05:38 | 65.35088 | 95.74875 | 34699 ft | 527 kts | 101° |
| 2026-05-07 05:38 | 65.33683 | 95.91994 | 34708 ft | 527 kts | 101° |
| 2026-05-07 05:39 | 65.32255 | 96.09133 | 34714 ft | 526 kts | 101° |
| 2026-05-07 05:39 | 65.30809 | 96.26240 | 34703 ft | 526 kts | 101° |
| 2026-05-07 05:40 | 65.29356 | 96.43195 | 34697 ft | 526 kts | 101° |
| 2026-05-07 05:40 | 65.27878 | 96.60195 | 34692 ft | 526 kts | 101° |
| 2026-05-07 05:41 | 65.26379 | 96.77203 | 34682 ft | 526 kts | 102° |
| 2026-05-07 05:41 | 65.24860 | 96.94191 | 34685 ft | 526 kts | 102° |
| 2026-05-07 05:42 | 65.23322 | 97.11167 | 34687 ft | 527 kts | 102° |
| 2026-05-07 05:42 | 65.21750 | 97.28268 | 34689 ft | 528 kts | 102° |
| 2026-05-07 05:43 | 65.20178 | 97.45159 | 34680 ft | 528 kts | 102° |
| 2026-05-07 05:43 | 65.18573 | 97.62175 | 34673 ft | 528 kts | 102° |
| 2026-05-07 05:44 | 65.16951 | 97.79157 | 34691 ft | 527 kts | 103° |
| 2026-05-07 05:44 | 65.15320 | 97.95988 | 34709 ft | 527 kts | 102° |
| 2026-05-07 05:45 | 65.13664 | 98.12869 | 34722 ft | 526 kts | 102° |
| 2026-05-07 05:45 | 65.11996 | 98.29666 | 34714 ft | 525 kts | 102° |
| 2026-05-07 05:46 | 65.10315 | 98.46375 | 34720 ft | 526 kts | 102° |
| 2026-05-07 05:46 | 65.08607 | 98.63165 | 34719 ft | 526 kts | 102° |
| 2026-05-07 05:47 | 65.06881 | 98.79910 | 34707 ft | 526 kts | 103° |
| 2026-05-07 05:47 | 65.05128 | 98.96715 | 34717 ft | 526 kts | 103° |
| 2026-05-07 05:48 | 65.03357 | 99.13498 | 34720 ft | 526 kts | 103° |
| 2026-05-07 05:48 | 65.01582 | 99.30101 | 34704 ft | 526 kts | 103° |
| 2026-05-07 05:49 | 64.99777 | 99.46812 | 34709 ft | 526 kts | 103° |
| 2026-05-07 05:49 | 64.97955 | 99.63470 | 34709 ft | 526 kts | 103° |
| 2026-05-07 05:50 | 64.96110 | 99.80151 | 34704 ft | 527 kts | 104° |
| 2026-05-07 05:50 | 64.94253 | 99.96755 | 34730 ft | 526 kts | 104° |
| 2026-05-07 05:51 | 64.92383 | 100.13282 | 34727 ft | 527 kts | 104° |
| 2026-05-07 05:51 | 64.90488 | 100.29851 | 34749 ft | 527 kts | 104° |
| 2026-05-07 05:52 | 64.88566 | 100.46455 | 34728 ft | 526 kts | 104° |
| 2026-05-07 05:52 | 64.86623 | 100.63064 | 34732 ft | 527 kts | 105° |
| 2026-05-07 05:53 | 64.84682 | 100.79485 | 34731 ft | 526 kts | 105° |
| 2026-05-07 05:53 | 64.82705 | 100.96011 | 34719 ft | 527 kts | 105° |
| 2026-05-07 05:54 | 64.80724 | 101.12425 | 34735 ft | 526 kts | 105° |
| 2026-05-07 05:54 | 64.78720 | 101.28838 | 34747 ft | 525 kts | 106° |
| 2026-05-07 05:55 | 64.76691 | 101.45273 | 34734 ft | 525 kts | 107° |
| 2026-05-07 05:55 | 64.74643 | 101.61595 | 34732 ft | 525 kts | 106° |
| 2026-05-07 05:56 | 64.72602 | 101.77898 | 34750 ft | 524 kts | 107° |
| 2026-05-07 05:56 | 64.70527 | 101.94209 | 34738 ft | 526 kts | 107° |
| 2026-05-07 05:57 | 64.68447 | 102.10394 | 34735 ft | 525 kts | 107° |
| 2026-05-07 05:57 | 64.66328 | 102.26712 | 34753 ft | 526 kts | 107° |
| 2026-05-07 05:58 | 64.64203 | 102.42919 | 34745 ft | 527 kts | 107° |
| 2026-05-07 05:58 | 64.62050 | 102.59172 | 34738 ft | 527 kts | 107° |
| 2026-05-07 05:59 | 64.59887 | 102.75337 | 34740 ft | 525 kts | 108° |
| 2026-05-07 05:59 | 64.57697 | 102.91550 | 34739 ft | 526 kts | 108° |
| 2026-05-07 06:00 | 64.55493 | 103.07714 | 34732 ft | 527 kts | 108° |
| 2026-05-07 06:00 | 64.53263 | 103.23903 | 34726 ft | 528 kts | 108° |
| 2026-05-07 06:01 | 64.51019 | 103.40051 | 34733 ft | 527 kts | 108° |
| 2026-05-07 06:01 | 64.48758 | 103.56158 | 34740 ft | 527 kts | 108° |
| 2026-05-07 06:02 | 64.46493 | 103.72147 | 34727 ft | 528 kts | 109° |
| 2026-05-07 06:02 | 64.44184 | 103.88287 | 34730 ft | 528 kts | 109° |
| 2026-05-07 06:03 | 64.41931 | 104.04365 | 34743 ft | 528 kts | 108° |
| 2026-05-07 06:03 | 64.39668 | 104.20420 | 34757 ft | 529 kts | 108° |
| 2026-05-07 06:04 | 64.37382 | 104.36501 | 34762 ft | 529 kts | 108° |
| 2026-05-07 06:04 | 64.35075 | 104.52557 | 34751 ft | 530 kts | 108° |
| 2026-05-07 06:05 | 64.32748 | 104.68618 | 34757 ft | 530 kts | 109° |
| 2026-05-07 06:05 | 64.30402 | 104.84653 | 34760 ft | 530 kts | 109° |
| 2026-05-07 06:06 | 64.28049 | 105.00592 | 34771 ft | 531 kts | 109° |
| 2026-05-07 06:06 | 64.25670 | 105.16568 | 34754 ft | 530 kts | 109° |
| 2026-05-07 06:07 | 64.23276 | 105.32491 | 34757 ft | 530 kts | 109° |
| 2026-05-07 06:07 | 64.20863 | 105.48412 | 34766 ft | 531 kts | 109° |
| 2026-05-07 06:08 | 64.18417 | 105.64391 | 34770 ft | 531 kts | 109° |
| 2026-05-07 06:08 | 64.15967 | 105.80268 | 34758 ft | 530 kts | 110° |
| 2026-05-07 06:09 | 64.13500 | 105.96110 | 34763 ft | 530 kts | 110° |
| 2026-05-07 06:09 | 64.11022 | 106.11879 | 34751 ft | 530 kts | 110° |
| 2026-05-07 06:10 | 64.08518 | 106.27682 | 34745 ft | 531 kts | 110° |
| 2026-05-07 06:10 | 64.06006 | 106.43397 | 34764 ft | 531 kts | 110° |
| 2026-05-07 06:11 | 64.03463 | 106.59182 | 34774 ft | 531 kts | 110° |
| 2026-05-07 06:11 | 64.00901 | 106.74934 | 34772 ft | 530 kts | 111° |
| 2026-05-07 06:12 | 63.98343 | 106.90536 | 34780 ft | 529 kts | 111° |
| 2026-05-07 06:12 | 63.95730 | 107.06168 | 34779 ft | 529 kts | 111° |
| 2026-05-07 06:13 | 63.93085 | 107.21633 | 34782 ft | 531 kts | 111° |
| 2026-05-07 06:13 | 63.90387 | 107.37288 | 34782 ft | 532 kts | 111° |
| 2026-05-07 06:14 | 63.87697 | 107.52773 | 34771 ft | 531 kts | 111° |
| 2026-05-07 06:14 | 63.84983 | 107.68265 | 34770 ft | 530 kts | 112° |
| 2026-05-07 06:15 | 63.82268 | 107.83640 | 34768 ft | 531 kts | 112° |
| 2026-05-07 06:15 | 63.79513 | 107.99120 | 34773 ft | 530 kts | 111° |
| 2026-05-07 06:16 | 63.76753 | 108.14507 | 34773 ft | 530 kts | 111° |
| 2026-05-07 06:16 | 63.73981 | 108.29851 | 34774 ft | 531 kts | 112° |
| 2026-05-07 06:17 | 63.71176 | 108.45232 | 34772 ft | 531 kts | 112° |
| 2026-05-07 06:17 | 63.68371 | 108.60510 | 34770 ft | 531 kts | 112° |
| 2026-05-07 06:18 | 63.65533 | 108.75844 | 34771 ft | 532 kts | 112° |
| 2026-05-07 06:18 | 63.62698 | 108.91044 | 34781 ft | 532 kts | 112° |
| 2026-05-07 06:19 | 63.59837 | 109.06265 | 34785 ft | 531 kts | 112° |
| 2026-05-07 06:19 | 63.56951 | 109.21505 | 34786 ft | 530 kts | 112° |
| 2026-05-07 06:20 | 63.54062 | 109.36647 | 34784 ft | 529 kts | 112° |
| 2026-05-07 06:20 | 63.51175 | 109.51660 | 34792 ft | 529 kts | 112° |
| 2026-05-07 06:21 | 63.48270 | 109.66665 | 34795 ft | 529 kts | 113° |
| 2026-05-07 06:21 | 63.45320 | 109.81777 | 34792 ft | 530 kts | 113° |
| 2026-05-07 06:22 | 63.42382 | 109.96720 | 34796 ft | 529 kts | 113° |
| 2026-05-07 06:22 | 63.37922 | 110.19205 | 34793 ft | 530 kts | 113° |
| 2026-05-07 06:23 | 63.34947 | 110.34055 | 34804 ft | 529 kts | 113° |
| 2026-05-07 06:23 | 63.31947 | 110.48933 | 34810 ft | 529 kts | 113° |
| 2026-05-07 06:24 | 63.28931 | 110.63776 | 34807 ft | 529 kts | 113° |
| 2026-05-07 06:24 | 63.25893 | 110.78620 | 34800 ft | 529 kts | 114° |
| 2026-05-07 06:25 | 63.22851 | 110.93384 | 34809 ft | 528 kts | 114° |
| 2026-05-07 06:25 | 63.19810 | 111.08041 | 34814 ft | 528 kts | 114° |
| 2026-05-07 06:26 | 63.16739 | 111.22725 | 34814 ft | 528 kts | 114° |
| 2026-05-07 06:26 | 63.13636 | 111.37464 | 34812 ft | 528 kts | 113° |
| 2026-05-07 06:27 | 63.10553 | 111.52016 | 34819 ft | 527 kts | 113° |
| 2026-05-07 06:27 | 63.07433 | 111.66625 | 34825 ft | 526 kts | 114° |
| 2026-05-07 06:28 | 63.04329 | 111.81072 | 34819 ft | 526 kts | 114° |
| 2026-05-07 06:28 | 63.01185 | 111.95597 | 34818 ft | 526 kts | 114° |
| 2026-05-07 06:29 | 62.98040 | 112.10033 | 34809 ft | 527 kts | 114° |
| 2026-05-07 06:29 | 62.94863 | 112.24522 | 34812 ft | 525 kts | 114° |
| 2026-05-07 06:30 | 62.91706 | 112.38814 | 34814 ft | 525 kts | 114° |
| 2026-05-07 06:30 | 62.88509 | 112.53186 | 34805 ft | 524 kts | 114° |
| 2026-05-07 06:31 | 62.85317 | 112.67443 | 34810 ft | 524 kts | 115° |
| 2026-05-07 06:31 | 62.82108 | 112.81686 | 34804 ft | 524 kts | 114° |
| 2026-05-07 06:32 | 62.78903 | 112.95813 | 34806 ft | 523 kts | 115° |
| 2026-05-07 06:32 | 62.75654 | 113.10036 | 34808 ft | 523 kts | 114° |
| 2026-05-07 06:33 | 62.72403 | 113.24178 | 34809 ft | 524 kts | 114° |
| 2026-05-07 06:33 | 62.69143 | 113.38270 | 34814 ft | 523 kts | 114° |
| 2026-05-07 06:34 | 62.65880 | 113.52284 | 34822 ft | 522 kts | 114° |
| 2026-05-07 06:34 | 62.62595 | 113.66294 | 34824 ft | 523 kts | 115° |
| 2026-05-07 06:35 | 62.59290 | 113.80301 | 34820 ft | 523 kts | 115° |
| 2026-05-07 06:35 | 62.55986 | 113.94217 | 34829 ft | 522 kts | 115° |
| 2026-05-07 06:36 | 62.52416 | 114.07886 | 34840 ft | 524 kts | 120° |
| 2026-05-07 06:36 | 62.48542 | 114.21212 | 34836 ft | 523 kts | 120° |
| 2026-05-07 06:37 | 62.44671 | 114.34425 | 34828 ft | 524 kts | 120° |
| 2026-05-07 06:37 | 62.40766 | 114.47677 | 34832 ft | 524 kts | 120° |
| 2026-05-07 06:38 | 62.36887 | 114.60764 | 34829 ft | 523 kts | 120° |
| 2026-05-07 06:38 | 62.32973 | 114.73896 | 34823 ft | 523 kts | 121° |
| 2026-05-07 06:39 | 62.29030 | 114.87043 | 34820 ft | 523 kts | 121° |
| 2026-05-07 06:39 | 62.25106 | 115.00052 | 34826 ft | 522 kts | 121° |
| 2026-05-07 06:40 | 62.21171 | 115.13029 | 34823 ft | 522 kts | 121° |
| 2026-05-07 06:40 | 62.17233 | 115.25980 | 34818 ft | 521 kts | 121° |
| 2026-05-07 06:41 | 62.13287 | 115.38908 | 34822 ft | 520 kts | 121° |
| 2026-05-07 06:41 | 62.09385 | 115.51800 | 34805 ft | 519 kts | 116° |
| 2026-05-07 06:42 | 62.08064 | 115.58849 | 34802 ft | 512 kts | 99° |
| 2026-05-07 06:42 | 62.07591 | 115.66295 | 34816 ft | 503 kts | 85° |
| 2026-05-07 06:42 | 62.08389 | 115.80945 | 34825 ft | 499 kts | 77° |
| 2026-05-07 06:43 | 62.09273 | 115.95489 | 34817 ft | 498 kts | 77° |
| 2026-05-07 06:43 | 62.10141 | 116.10128 | 34825 ft | 498 kts | 77° |
| 2026-05-07 06:44 | 62.10986 | 116.24654 | 34829 ft | 497 kts | 77° |
| 2026-05-07 06:44 | 62.11823 | 116.39311 | 34830 ft | 497 kts | 77° |
| 2026-05-07 06:45 | 62.12638 | 116.53885 | 34829 ft | 497 kts | 77° |
| 2026-05-07 06:45 | 62.13441 | 116.68495 | 34829 ft | 496 kts | 78° |
| 2026-05-07 06:46 | 62.14220 | 116.83034 | 34829 ft | 496 kts | 78° |
| 2026-05-07 06:46 | 62.14987 | 116.97659 | 34817 ft | 496 kts | 78° |
| 2026-05-07 06:47 | 62.15742 | 117.12327 | 34819 ft | 497 kts | 78° |
| 2026-05-07 06:47 | 62.16477 | 117.26999 | 34823 ft | 498 kts | 78° |
| 2026-05-07 06:48 | 62.17193 | 117.41607 | 34827 ft | 498 kts | 78° |
| 2026-05-07 06:48 | 62.17897 | 117.56288 | 34826 ft | 499 kts | 78° |
| 2026-05-07 06:49 | 62.18659 | 117.70974 | 34820 ft | 497 kts | 76° |
| 2026-05-07 06:49 | 62.19668 | 117.85571 | 34832 ft | 499 kts | 76° |
| 2026-05-07 06:50 | 62.20650 | 118.00291 | 34818 ft | 500 kts | 76° |
| 2026-05-07 06:50 | 62.21611 | 118.14919 | 34813 ft | 499 kts | 76° |
| 2026-05-07 06:51 | 62.22563 | 118.29661 | 34813 ft | 500 kts | 77° |
| 2026-05-07 06:51 | 62.23495 | 118.44378 | 34809 ft | 499 kts | 77° |
| 2026-05-07 06:52 | 62.24413 | 118.59096 | 34809 ft | 501 kts | 77° |
| 2026-05-07 06:52 | 62.25314 | 118.73796 | 34788 ft | 501 kts | 77° |
| 2026-05-07 06:53 | 62.26204 | 118.88601 | 34789 ft | 503 kts | 77° |
| 2026-05-07 06:53 | 62.27082 | 119.03449 | 34803 ft | 502 kts | 77° |
| 2026-05-07 06:54 | 62.27941 | 119.18291 | 34802 ft | 503 kts | 77° |
| 2026-05-07 06:54 | 62.28787 | 119.33176 | 34793 ft | 503 kts | 77° |
| 2026-05-07 06:55 | 62.29610 | 119.47916 | 34788 ft | 502 kts | 78° |
| 2026-05-07 06:55 | 62.30422 | 119.62781 | 34782 ft | 502 kts | 77° |
| 2026-05-07 06:56 | 62.31220 | 119.77684 | 34784 ft | 503 kts | 78° |
| 2026-05-07 06:56 | 62.32002 | 119.92602 | 34775 ft | 505 kts | 78° |
| 2026-05-07 06:57 | 62.32769 | 120.07507 | 34788 ft | 505 kts | 78° |
| 2026-05-07 06:57 | 62.33525 | 120.22578 | 34790 ft | 507 kts | 78° |
| 2026-05-07 06:58 | 62.34265 | 120.37604 | 34751 ft | 507 kts | 79° |
| 2026-05-07 06:58 | 62.34987 | 120.52639 | 34793 ft | 508 kts | 78° |
| 2026-05-07 06:59 | 62.35696 | 120.67725 | 34790 ft | 507 kts | 79° |
| 2026-05-07 06:59 | 62.36384 | 120.82777 | 34779 ft | 507 kts | 79° |
| 2026-05-07 07:00 | 62.37060 | 120.97863 | 34775 ft | 507 kts | 79° |
| 2026-05-07 07:00 | 62.37714 | 121.12835 | 34771 ft | 507 kts | 80° |
| 2026-05-07 07:01 | 62.38360 | 121.27998 | 34760 ft | 509 kts | 79° |
| 2026-05-07 07:01 | 62.38985 | 121.43076 | 34774 ft | 510 kts | 80° |
| 2026-05-07 07:02 | 62.39600 | 121.58353 | 34763 ft | 510 kts | 79° |
| 2026-05-07 07:02 | 62.40195 | 121.73499 | 34797 ft | 512 kts | 81° |
| 2026-05-07 07:03 | 62.40772 | 121.88668 | 34758 ft | 511 kts | 81° |
| 2026-05-07 07:03 | 62.41338 | 122.03906 | 34762 ft | 512 kts | 81° |
| 2026-05-07 07:04 | 62.41884 | 122.19165 | 34748 ft | 513 kts | 81° |
| 2026-05-07 07:04 | 62.42417 | 122.34433 | 34782 ft | 512 kts | 81° |
| 2026-05-07 07:05 | 62.42933 | 122.49736 | 34739 ft | 513 kts | 81° |
| 2026-05-07 07:05 | 62.43433 | 122.65039 | 34750 ft | 513 kts | 82° |
| 2026-05-07 07:06 | 62.43914 | 122.80342 | 34739 ft | 512 kts | 82° |
| 2026-05-07 07:06 | 62.44380 | 122.95674 | 34751 ft | 514 kts | 82° |
| 2026-05-07 07:07 | 62.44828 | 123.10960 | 34725 ft | 514 kts | 82° |
| 2026-05-07 07:07 | 62.45262 | 123.26398 | 34740 ft | 514 kts | 82° |
| 2026-05-07 07:08 | 62.46252 | 123.41415 | 34721 ft | 502 kts | 64° |
| 2026-05-07 07:08 | 62.47839 | 123.47954 | 34743 ft | 487 kts | 48° |
| 2026-05-07 07:08 | 62.50101 | 123.53205 | 34750 ft | 474 kts | 32° |
| 2026-05-07 07:09 | 62.52867 | 123.56834 | 34720 ft | 458 kts | 15° |
| 2026-05-07 07:09 | 62.55869 | 123.58556 | 34769 ft | 444 kts | 360° |
| 2026-05-07 07:09 | 62.58895 | 123.58390 | 34745 ft | 435 kts | 346° |
| 2026-05-07 07:09 | 62.61765 | 123.56724 | 34731 ft | 424 kts | 332° |
| 2026-05-07 07:10 | 62.66680 | 123.50008 | 34768 ft | 422 kts | 321° |
| 2026-05-07 07:10 | 62.71340 | 123.42411 | 34754 ft | 419 kts | 320° |
| 2026-05-07 07:11 | 62.75958 | 123.34656 | 34708 ft | 419 kts | 320° |
| 2026-05-07 07:11 | 62.80516 | 123.26939 | 34757 ft | 418 kts | 320° |
| 2026-05-07 07:12 | 62.85097 | 123.19149 | 34766 ft | 418 kts | 320° |
| 2026-05-07 07:12 | 62.89674 | 123.11333 | 34725 ft | 418 kts | 320° |
| 2026-05-07 07:13 | 62.94227 | 123.03529 | 34750 ft | 418 kts | 320° |
| 2026-05-07 07:13 | 62.98773 | 122.95704 | 34728 ft | 417 kts | 320° |
| 2026-05-07 07:14 | 63.03286 | 122.87901 | 34737 ft | 416 kts | 320° |
| 2026-05-07 07:14 | 63.07817 | 122.80038 | 34755 ft | 416 kts | 320° |
| 2026-05-07 07:15 | 63.12341 | 122.72154 | 34723 ft | 417 kts | 320° |
| 2026-05-07 07:15 | 63.16898 | 122.64181 | 34754 ft | 421 kts | 320° |
| 2026-05-07 07:16 | 63.21455 | 122.56177 | 34744 ft | 419 kts | 320° |
| 2026-05-07 07:16 | 63.25996 | 122.48165 | 34728 ft | 418 kts | 320° |
| 2026-05-07 07:17 | 63.30517 | 122.40153 | 34749 ft | 420 kts | 320° |
| 2026-05-07 07:17 | 63.35071 | 122.32056 | 34736 ft | 420 kts | 319° |
| 2026-05-07 07:18 | 63.39595 | 122.23970 | 34719 ft | 420 kts | 319° |
| 2026-05-07 07:18 | 63.44157 | 122.15784 | 34741 ft | 422 kts | 319° |
| 2026-05-07 07:19 | 63.48680 | 122.07642 | 34726 ft | 421 kts | 320° |
| 2026-05-07 07:19 | 63.53215 | 121.99436 | 34713 ft | 421 kts | 319° |
| 2026-05-07 07:20 | 63.57755 | 121.91193 | 34732 ft | 421 kts | 319° |
| 2026-05-07 07:20 | 63.62270 | 121.82951 | 34731 ft | 421 kts | 320° |
| 2026-05-07 07:21 | 63.66800 | 121.74652 | 34738 ft | 422 kts | 319° |
| 2026-05-07 07:21 | 63.71350 | 121.66283 | 34729 ft | 422 kts | 320° |
| 2026-05-07 07:22 | 63.75856 | 121.57953 | 34733 ft | 422 kts | 320° |
| 2026-05-07 07:22 | 63.80376 | 121.49570 | 34754 ft | 422 kts | 319° |
| 2026-05-07 07:23 | 63.84890 | 121.41157 | 34739 ft | 421 kts | 320° |
| 2026-05-07 07:23 | 63.89404 | 121.32704 | 34738 ft | 422 kts | 319° |
| 2026-05-07 07:24 | 63.93897 | 121.24264 | 34719 ft | 422 kts | 319° |
| 2026-05-07 07:24 | 63.98400 | 121.15762 | 34732 ft | 423 kts | 319° |
| 2026-05-07 07:25 | 64.05132 | 121.02985 | 34727 ft | 422 kts | 319° |
| 2026-05-07 07:26 | 64.09629 | 120.94404 | 34715 ft | 421 kts | 319° |
| 2026-05-07 07:26 | 64.14105 | 120.85823 | 34746 ft | 424 kts | 319° |
| 2026-05-07 07:27 | 64.18574 | 120.77219 | 34753 ft | 422 kts | 319° |
| 2026-05-07 07:27 | 64.23062 | 120.68545 | 34737 ft | 422 kts | 319° |
| 2026-05-07 07:28 | 64.27522 | 120.59882 | 34730 ft | 422 kts | 319° |
| 2026-05-07 07:28 | 64.31966 | 120.51211 | 34718 ft | 422 kts | 319° |
| 2026-05-07 07:29 | 64.36423 | 120.42481 | 34719 ft | 422 kts | 319° |
| 2026-05-07 07:29 | 64.40874 | 120.33726 | 34724 ft | 422 kts | 318° |
| 2026-05-07 07:30 | 64.45310 | 120.24956 | 34720 ft | 421 kts | 318° |
| 2026-05-07 07:30 | 64.49733 | 120.16174 | 34715 ft | 421 kts | 318° |
| 2026-05-07 07:31 | 64.54177 | 120.07310 | 34729 ft | 422 kts | 318° |
| 2026-05-07 07:31 | 64.58597 | 119.98457 | 34729 ft | 422 kts | 318° |
| 2026-05-07 07:32 | 64.63013 | 119.89576 | 34734 ft | 422 kts | 318° |
| 2026-05-07 07:32 | 64.67445 | 119.80626 | 34733 ft | 421 kts | 318° |
| 2026-05-07 07:33 | 64.71840 | 119.71700 | 34732 ft | 423 kts | 318° |
| 2026-05-07 07:33 | 64.76244 | 119.62718 | 34717 ft | 420 kts | 317° |
| 2026-05-07 07:34 | 64.80654 | 119.53683 | 34723 ft | 422 kts | 318° |
| 2026-05-07 07:34 | 64.85041 | 119.44662 | 34714 ft | 422 kts | 318° |
| 2026-05-07 07:35 | 64.89432 | 119.35583 | 34717 ft | 422 kts | 318° |
| 2026-05-07 07:35 | 64.93825 | 119.26465 | 34719 ft | 423 kts | 317° |
| 2026-05-07 07:36 | 64.98196 | 119.17348 | 34719 ft | 423 kts | 317° |
| 2026-05-07 07:36 | 65.02583 | 119.08158 | 34724 ft | 423 kts | 317° |
| 2026-05-07 07:37 | 65.06937 | 118.98991 | 34717 ft | 421 kts | 317° |
| 2026-05-07 07:37 | 65.11302 | 118.89760 | 34714 ft | 420 kts | 317° |
| 2026-05-07 07:38 | 65.15637 | 118.80555 | 34709 ft | 423 kts | 317° |
| 2026-05-07 07:38 | 65.20007 | 118.71229 | 34697 ft | 422 kts | 317° |
| 2026-05-07 07:39 | 65.24354 | 118.61912 | 34700 ft | 421 kts | 317° |
| 2026-05-07 07:39 | 65.28667 | 118.52624 | 34710 ft | 422 kts | 317° |
| 2026-05-07 07:40 | 65.33003 | 118.43240 | 34698 ft | 421 kts | 317° |
| 2026-05-07 07:40 | 65.37347 | 118.33798 | 34696 ft | 423 kts | 316° |
| 2026-05-07 07:41 | 65.41672 | 118.24353 | 34706 ft | 423 kts | 316° |
| 2026-05-07 07:41 | 65.45970 | 118.14924 | 34683 ft | 422 kts | 316° |
| 2026-05-07 07:42 | 65.50272 | 118.05444 | 34683 ft | 423 kts | 316° |
| 2026-05-07 07:42 | 65.54584 | 117.95894 | 34672 ft | 423 kts | 316° |
| 2026-05-07 07:43 | 65.58903 | 117.86283 | 34692 ft | 422 kts | 316° |
| 2026-05-07 07:43 | 65.63167 | 117.76746 | 34682 ft | 421 kts | 316° |
| 2026-05-07 07:44 | 65.67476 | 117.67069 | 34676 ft | 423 kts | 316° |
| 2026-05-07 07:44 | 65.71752 | 117.57420 | 34669 ft | 422 kts | 316° |
| 2026-05-07 07:45 | 65.76035 | 117.47711 | 34675 ft | 424 kts | 316° |
| 2026-05-07 07:45 | 65.80305 | 117.37981 | 34665 ft | 422 kts | 316° |
| 2026-05-07 07:46 | 65.84573 | 117.28211 | 34676 ft | 422 kts | 315° |
| 2026-05-07 07:46 | 65.88812 | 117.18458 | 34664 ft | 423 kts | 315° |
| 2026-05-07 07:47 | 65.93079 | 117.08598 | 34678 ft | 422 kts | 315° |
| 2026-05-07 07:47 | 65.97308 | 116.98774 | 34692 ft | 422 kts | 315° |
| 2026-05-07 07:48 | 66.01555 | 116.88867 | 34677 ft | 422 kts | 315° |
| 2026-05-07 07:48 | 66.05791 | 116.78932 | 34683 ft | 423 kts | 315° |
| 2026-05-07 07:49 | 66.10026 | 116.68956 | 34673 ft | 424 kts | 315° |
| 2026-05-07 07:49 | 66.14259 | 116.58935 | 34673 ft | 424 kts | 315° |
| 2026-05-07 07:50 | 66.18481 | 116.48887 | 34663 ft | 423 kts | 315° |
| 2026-05-07 07:50 | 66.22723 | 116.38748 | 34643 ft | 424 kts | 315° |
| 2026-05-07 07:51 | 66.26921 | 116.28659 | 34661 ft | 424 kts | 314° |
| 2026-05-07 07:51 | 66.31130 | 116.18495 | 34670 ft | 424 kts | 314° |
| 2026-05-07 07:52 | 66.35335 | 116.08289 | 34650 ft | 424 kts | 314° |
| 2026-05-07 07:52 | 66.39523 | 115.98077 | 34629 ft | 424 kts | 314° |
| 2026-05-07 07:53 | 66.43703 | 115.87837 | 34633 ft | 423 kts | 314° |
| 2026-05-07 07:53 | 66.47878 | 115.77550 | 34628 ft | 424 kts | 314° |
| 2026-05-07 07:54 | 66.52068 | 115.67183 | 34628 ft | 424 kts | 314° |
| 2026-05-07 07:54 | 66.56229 | 115.56834 | 34625 ft | 425 kts | 314° |
| 2026-05-07 07:55 | 66.60413 | 115.46375 | 34627 ft | 426 kts | 314° |
| 2026-05-07 07:55 | 66.64589 | 115.35883 | 34622 ft | 426 kts | 314° |
| 2026-05-07 07:56 | 66.68744 | 115.25388 | 34625 ft | 426 kts | 314° |
| 2026-05-07 07:56 | 66.72904 | 115.14833 | 34637 ft | 426 kts | 313° |
| 2026-05-07 07:57 | 66.77054 | 115.04246 | 34632 ft | 425 kts | 313° |
| 2026-05-07 07:57 | 66.81190 | 114.93637 | 34633 ft | 426 kts | 313° |
| 2026-05-07 07:58 | 66.85338 | 114.82947 | 34622 ft | 425 kts | 313° |
| 2026-05-07 07:58 | 66.89468 | 114.72250 | 34612 ft | 426 kts | 313° |
| 2026-05-07 07:59 | 66.93587 | 114.61525 | 34610 ft | 427 kts | 313° |
| 2026-05-07 07:59 | 66.97717 | 114.50715 | 34623 ft | 427 kts | 313° |
| 2026-05-07 08:00 | 67.01833 | 114.39882 | 34601 ft | 428 kts | 313° |
| 2026-05-07 08:00 | 67.05971 | 114.28944 | 34611 ft | 427 kts | 313° |
| 2026-05-07 08:01 | 67.10061 | 114.18076 | 34587 ft | 428 kts | 312° |
| 2026-05-07 08:01 | 67.14205 | 114.07001 | 34596 ft | 431 kts | 312° |
| 2026-05-07 08:02 | 67.18297 | 113.96011 | 34590 ft | 428 kts | 312° |
| 2026-05-07 08:02 | 67.22395 | 113.84945 | 34591 ft | 429 kts | 312° |
| 2026-05-07 08:03 | 67.26505 | 113.73782 | 34588 ft | 429 kts | 312° |
| 2026-05-07 08:03 | 67.30566 | 113.62707 | 34599 ft | 428 kts | 312° |
| 2026-05-07 08:04 | 67.34654 | 113.51485 | 34590 ft | 429 kts | 312° |
| 2026-05-07 08:04 | 67.38733 | 113.40237 | 34592 ft | 428 kts | 312° |
| 2026-05-07 08:05 | 67.42796 | 113.28971 | 34607 ft | 430 kts | 311° |
| 2026-05-07 08:05 | 67.46847 | 113.17677 | 34616 ft | 430 kts | 311° |
| 2026-05-07 08:06 | 67.50906 | 113.06298 | 34595 ft | 430 kts | 311° |
| 2026-05-07 08:06 | 67.54959 | 112.94875 | 34593 ft | 430 kts | 311° |
| 2026-05-07 08:07 | 67.58987 | 112.83462 | 34572 ft | 431 kts | 311° |
| 2026-05-07 08:07 | 67.63026 | 112.71957 | 34570 ft | 430 kts | 311° |
| 2026-05-07 08:08 | 67.67032 | 112.60488 | 34572 ft | 430 kts | 311° |
| 2026-05-07 08:08 | 67.71066 | 112.48865 | 34604 ft | 431 kts | 311° |
| 2026-05-07 08:09 | 67.75067 | 112.37278 | 34591 ft | 430 kts | 311° |
| 2026-05-07 08:09 | 67.79091 | 112.25565 | 34590 ft | 432 kts | 310° |
| 2026-05-07 08:10 | 67.83089 | 112.13858 | 34598 ft | 432 kts | 310° |
| 2026-05-07 08:10 | 67.87094 | 112.02068 | 34575 ft | 432 kts | 310° |
| 2026-05-07 08:11 | 67.91090 | 111.90241 | 34549 ft | 432 kts | 310° |
| 2026-05-07 08:11 | 67.95058 | 111.78424 | 34567 ft | 433 kts | 310° |
| 2026-05-07 08:12 | 67.99035 | 111.66526 | 34547 ft | 433 kts | 310° |
| 2026-05-07 08:12 | 68.03002 | 111.54578 | 34538 ft | 433 kts | 310° |
| 2026-05-07 08:13 | 68.06969 | 111.42571 | 34546 ft | 432 kts | 310° |
| 2026-05-07 08:13 | 68.10929 | 111.30512 | 34543 ft | 433 kts | 309° |
| 2026-05-07 08:14 | 68.14892 | 111.18381 | 34558 ft | 434 kts | 309° |
| 2026-05-07 08:14 | 68.18828 | 111.06265 | 34556 ft | 434 kts | 309° |
| 2026-05-07 08:15 | 68.22768 | 110.94058 | 34548 ft | 434 kts | 309° |
| 2026-05-07 08:15 | 68.26695 | 110.81827 | 34534 ft | 434 kts | 309° |
| 2026-05-07 08:16 | 68.30623 | 110.69525 | 34540 ft | 434 kts | 309° |
| 2026-05-07 08:16 | 68.34533 | 110.57207 | 34531 ft | 435 kts | 309° |
| 2026-05-07 08:17 | 68.38454 | 110.44780 | 34535 ft | 435 kts | 309° |
| 2026-05-07 08:17 | 68.42339 | 110.32399 | 34538 ft | 434 kts | 308° |
| 2026-05-07 08:18 | 68.46246 | 110.19874 | 34530 ft | 436 kts | 308° |
| 2026-05-07 08:18 | 68.50114 | 110.07404 | 34534 ft | 434 kts | 308° |
| 2026-05-07 08:19 | 68.54011 | 109.94762 | 34537 ft | 436 kts | 308° |
| 2026-05-07 08:19 | 68.57883 | 109.82129 | 34520 ft | 436 kts | 308° |
| 2026-05-07 08:20 | 68.61756 | 109.69419 | 34536 ft | 437 kts | 309° |
| 2026-05-07 08:20 | 68.65620 | 109.56660 | 34529 ft | 437 kts | 309° |
| 2026-05-07 08:21 | 68.69472 | 109.43868 | 34523 ft | 436 kts | 309° |
| 2026-05-07 08:21 | 68.73305 | 109.31061 | 34502 ft | 438 kts | 308° |
| 2026-05-07 08:22 | 68.77171 | 109.18066 | 34504 ft | 438 kts | 308° |
| 2026-05-07 08:22 | 68.80978 | 109.05191 | 34509 ft | 437 kts | 308° |
| 2026-05-07 08:23 | 68.84799 | 108.92188 | 34517 ft | 438 kts | 308° |
| 2026-05-07 08:23 | 68.88638 | 108.79051 | 34515 ft | 439 kts | 308° |
| 2026-05-07 08:24 | 68.92446 | 108.65940 | 34498 ft | 439 kts | 308° |
| 2026-05-07 08:24 | 68.96237 | 108.52803 | 34487 ft | 439 kts | 308° |
| 2026-05-07 08:25 | 69.00059 | 108.39490 | 34485 ft | 442 kts | 308° |
| 2026-05-07 08:25 | 69.03863 | 108.26142 | 34482 ft | 441 kts | 307° |
| 2026-05-07 08:26 | 69.09531 | 108.06108 | 34466 ft | 441 kts | 307° |
| 2026-05-07 08:26 | 69.13311 | 107.92641 | 34481 ft | 441 kts | 307° |
| 2026-05-07 08:27 | 69.17072 | 107.79159 | 34478 ft | 443 kts | 307° |
| 2026-05-07 08:27 | 69.20849 | 107.65537 | 34472 ft | 442 kts | 307° |
| 2026-05-07 08:28 | 69.24594 | 107.51937 | 34464 ft | 442 kts | 307° |
| 2026-05-07 08:28 | 69.28353 | 107.38203 | 34475 ft | 442 kts | 307° |
| 2026-05-07 08:29 | 69.32079 | 107.24503 | 34486 ft | 443 kts | 306° |
| 2026-05-07 08:29 | 69.35790 | 107.10772 | 34482 ft | 443 kts | 306° |
| 2026-05-07 08:30 | 69.39503 | 106.96947 | 34460 ft | 443 kts | 306° |
| 2026-05-07 08:30 | 69.43208 | 106.83063 | 34447 ft | 443 kts | 306° |
| 2026-05-07 08:31 | 69.46909 | 106.69105 | 34422 ft | 444 kts | 306° |
| 2026-05-07 08:31 | 69.50591 | 106.55122 | 34419 ft | 443 kts | 306° |
| 2026-05-07 08:32 | 69.54266 | 106.41077 | 34419 ft | 444 kts | 306° |
| 2026-05-07 08:32 | 69.57941 | 106.26941 | 34412 ft | 443 kts | 305° |
| 2026-05-07 08:33 | 69.61582 | 106.12848 | 34405 ft | 443 kts | 305° |
| 2026-05-07 08:33 | 69.65222 | 105.98664 | 34423 ft | 444 kts | 305° |
| 2026-05-07 08:34 | 69.68858 | 105.84403 | 34434 ft | 444 kts | 305° |
| 2026-05-07 08:34 | 69.72491 | 105.70058 | 34443 ft | 444 kts | 305° |
| 2026-05-07 08:35 | 69.76095 | 105.55733 | 34425 ft | 445 kts | 305° |
| 2026-05-07 08:35 | 69.79691 | 105.41341 | 34397 ft | 444 kts | 305° |
| 2026-05-07 08:36 | 69.83296 | 105.26814 | 34403 ft | 445 kts | 304° |
| 2026-05-07 08:36 | 69.86879 | 105.12289 | 34414 ft | 445 kts | 304° |
| 2026-05-07 08:37 | 69.90443 | 104.97734 | 34419 ft | 445 kts | 304° |
| 2026-05-07 08:37 | 69.93998 | 104.83121 | 34427 ft | 445 kts | 304° |
| 2026-05-07 08:38 | 69.97553 | 104.68405 | 34447 ft | 445 kts | 304° |
| 2026-05-07 08:38 | 70.01090 | 104.53671 | 34456 ft | 445 kts | 304° |
| 2026-05-07 08:39 | 70.04600 | 104.38941 | 34443 ft | 446 kts | 304° |
| 2026-05-07 08:39 | 70.08132 | 104.24020 | 34437 ft | 445 kts | 303° |
| 2026-05-07 08:40 | 70.11615 | 104.09203 | 34443 ft | 445 kts | 303° |
| 2026-05-07 08:40 | 70.15103 | 103.94262 | 34448 ft | 445 kts | 303° |
| 2026-05-07 08:41 | 70.18581 | 103.79259 | 34447 ft | 443 kts | 303° |
| 2026-05-07 08:41 | 70.22030 | 103.64279 | 34452 ft | 445 kts | 303° |
| 2026-05-07 08:42 | 70.25474 | 103.49216 | 34448 ft | 445 kts | 303° |
| 2026-05-07 08:42 | 70.28913 | 103.34062 | 34438 ft | 445 kts | 302° |
| 2026-05-07 08:43 | 70.32351 | 103.18816 | 34436 ft | 445 kts | 302° |
| 2026-05-07 08:43 | 70.35743 | 103.03660 | 34435 ft | 446 kts | 302° |
| 2026-05-07 08:44 | 70.39156 | 102.88303 | 34434 ft | 446 kts | 302° |
| 2026-05-07 08:44 | 70.42539 | 102.72977 | 34438 ft | 446 kts | 302° |
| 2026-05-07 08:45 | 70.45917 | 102.57557 | 34445 ft | 447 kts | 302° |
| 2026-05-07 08:45 | 70.49299 | 102.42007 | 34441 ft | 445 kts | 302° |
| 2026-05-07 08:46 | 70.52633 | 102.26565 | 34448 ft | 445 kts | 301° |
| 2026-05-07 08:46 | 70.55976 | 102.10974 | 34443 ft | 446 kts | 301° |
| 2026-05-07 08:47 | 70.59299 | 101.95361 | 34435 ft | 446 kts | 301° |
| 2026-05-07 08:47 | 70.62608 | 101.79700 | 34420 ft | 445 kts | 301° |
| 2026-05-07 08:48 | 70.65900 | 101.63995 | 34417 ft | 445 kts | 301° |
| 2026-05-07 08:48 | 70.69161 | 101.48329 | 34426 ft | 446 kts | 301° |
| 2026-05-07 08:49 | 70.72441 | 101.32461 | 34441 ft | 446 kts | 300° |
| 2026-05-07 08:49 | 70.75687 | 101.16637 | 34458 ft | 446 kts | 300° |
| 2026-05-07 08:50 | 70.78930 | 101.00711 | 34451 ft | 446 kts | 300° |
| 2026-05-07 08:50 | 70.82172 | 100.84665 | 34438 ft | 446 kts | 300° |
| 2026-05-07 08:51 | 70.85390 | 100.68617 | 34419 ft | 446 kts | 300° |
| 2026-05-07 08:51 | 70.88592 | 100.52533 | 34437 ft | 446 kts | 300° |
| 2026-05-07 08:52 | 70.91768 | 100.36454 | 34439 ft | 446 kts | 300° |
| 2026-05-07 08:52 | 70.94948 | 100.20233 | 34453 ft | 446 kts | 299° |
| 2026-05-07 08:53 | 70.98104 | 100.04008 | 34458 ft | 445 kts | 299° |
| 2026-05-07 08:53 | 71.01238 | 99.87778 | 34463 ft | 447 kts | 299° |
| 2026-05-07 08:54 | 71.04379 | 99.71373 | 34462 ft | 448 kts | 299° |
| 2026-05-07 08:54 | 71.07519 | 99.54849 | 34459 ft | 447 kts | 299° |
| 2026-05-07 08:55 | 71.10633 | 99.38340 | 34463 ft | 447 kts | 299° |
| 2026-05-07 08:55 | 71.13716 | 99.21860 | 34476 ft | 447 kts | 298° |
| 2026-05-07 08:56 | 71.16786 | 99.05318 | 34475 ft | 447 kts | 298° |
| 2026-05-07 08:56 | 71.19854 | 98.88665 | 34462 ft | 447 kts | 298° |
| 2026-05-07 08:57 | 71.22903 | 98.71979 | 34474 ft | 448 kts | 298° |
| 2026-05-07 08:57 | 71.25964 | 98.55082 | 34466 ft | 448 kts | 298° |
| 2026-05-07 08:58 | 71.28999 | 98.38204 | 34468 ft | 449 kts | 298° |
| 2026-05-07 08:58 | 71.31998 | 98.21384 | 34474 ft | 447 kts | 297° |
| 2026-05-07 08:59 | 71.35000 | 98.04413 | 34473 ft | 447 kts | 297° |
| 2026-05-07 08:59 | 71.37971 | 97.87483 | 34483 ft | 447 kts | 297° |
| 2026-05-07 09:00 | 71.40934 | 97.70445 | 34475 ft | 447 kts | 297° |
| 2026-05-07 09:00 | 71.43871 | 97.53430 | 34489 ft | 448 kts | 297° |
| 2026-05-07 09:01 | 71.46800 | 97.36316 | 34474 ft | 449 kts | 297° |
| 2026-05-07 09:01 | 71.49738 | 97.19007 | 34480 ft | 449 kts | 297° |
| 2026-05-07 09:02 | 71.52640 | 97.01759 | 34478 ft | 449 kts | 296° |
| 2026-05-07 09:02 | 71.55527 | 96.84467 | 34474 ft | 448 kts | 296° |
| 2026-05-07 09:03 | 71.58411 | 96.67041 | 34484 ft | 448 kts | 296° |
| 2026-05-07 09:03 | 71.61253 | 96.49714 | 34479 ft | 448 kts | 296° |
| 2026-05-07 09:04 | 71.64104 | 96.32194 | 34485 ft | 449 kts | 296° |
| 2026-05-07 09:04 | 71.66926 | 96.14695 | 34473 ft | 448 kts | 296° |
| 2026-05-07 09:05 | 71.69744 | 95.97070 | 34487 ft | 449 kts | 296° |
| 2026-05-07 09:05 | 71.72555 | 95.79336 | 34479 ft | 450 kts | 296° |
| 2026-05-07 09:06 | 71.75336 | 95.61635 | 34501 ft | 449 kts | 296° |
| 2026-05-07 09:06 | 71.78102 | 95.43867 | 34492 ft | 449 kts | 296° |
| 2026-05-07 09:07 | 71.80866 | 95.25967 | 34496 ft | 450 kts | 295° |
| 2026-05-07 09:07 | 71.83590 | 95.08156 | 34503 ft | 450 kts | 295° |
| 2026-05-07 09:08 | 71.86326 | 94.90116 | 34500 ft | 450 kts | 295° |
| 2026-05-07 09:08 | 71.88874 | 94.73154 | 34495 ft | 450 kts | 295° |
| 2026-05-07 09:09 | 71.91798 | 94.55595 | 34461 ft | 452 kts | 307° |
| 2026-05-07 09:09 | 71.94062 | 94.48590 | 34490 ft | 457 kts | 320° |
| 2026-05-07 09:09 | 71.96835 | 94.43439 | 34454 ft | 466 kts | 335° |
| 2026-05-07 09:10 | 71.99971 | 94.40993 | 34461 ft | 473 kts | 351° |
| 2026-05-07 09:10 | 72.03275 | 94.41447 | 34447 ft | 482 kts | 7° |
| 2026-05-07 09:10 | 72.06461 | 94.44859 | 34463 ft | 491 kts | 23° |
| 2026-05-07 09:10 | 72.09273 | 94.50941 | 34463 ft | 498 kts | 39° |
| 2026-05-07 09:11 | 72.11546 | 94.59410 | 34479 ft | 505 kts | 54° |
| 2026-05-07 09:11 | 72.13088 | 94.69684 | 34474 ft | 511 kts | 70° |
| 2026-05-07 09:11 | 72.13765 | 94.80964 | 34489 ft | 514 kts | 86° |
| 2026-05-07 09:11 | 72.13532 | 94.92484 | 34488 ft | 515 kts | 102° |
| 2026-05-07 09:12 | 72.12389 | 95.03488 | 34500 ft | 513 kts | 117° |
| 2026-05-07 09:12 | 72.10422 | 95.13109 | 34494 ft | 510 kts | 133° |
| 2026-05-07 09:12 | 72.05258 | 95.28399 | 34491 ft | 510 kts | 141° |
| 2026-05-07 09:13 | 71.99957 | 95.43403 | 34497 ft | 508 kts | 141° |
| 2026-05-07 09:13 | 71.94639 | 95.58317 | 34492 ft | 509 kts | 141° |
| 2026-05-07 09:14 | 71.89309 | 95.73132 | 34484 ft | 509 kts | 142° |
| 2026-05-07 09:14 | 71.83975 | 95.87826 | 34486 ft | 509 kts | 142° |
| 2026-05-07 09:15 | 71.78620 | 96.02445 | 34495 ft | 510 kts | 142° |
| 2026-05-07 09:15 | 71.73659 | 96.18584 | 34472 ft | 514 kts | 123° |
| 2026-05-07 09:16 | 71.72160 | 96.28807 | 34477 ft | 517 kts | 108° |
| 2026-05-07 09:16 | 71.71081 | 96.39562 | 34497 ft | 518 kts | 109° |
| 2026-05-07 09:16 | 71.68657 | 96.61134 | 34486 ft | 517 kts | 110° |
| 2026-05-07 09:17 | 71.66183 | 96.82424 | 34480 ft | 517 kts | 111° |
| 2026-05-07 09:17 | 71.63666 | 97.03781 | 34476 ft | 518 kts | 111° |
| 2026-05-07 09:18 | 71.61133 | 97.25031 | 34476 ft | 519 kts | 111° |
| 2026-05-07 09:18 | 71.58581 | 97.46178 | 34467 ft | 518 kts | 111° |
| 2026-05-07 09:19 | 71.55988 | 97.67401 | 34471 ft | 519 kts | 112° |
| 2026-05-07 09:19 | 71.53374 | 97.88556 | 34477 ft | 519 kts | 112° |
| 2026-05-07 09:20 | 71.50737 | 98.09647 | 34486 ft | 519 kts | 112° |
| 2026-05-07 09:20 | 71.48084 | 98.30617 | 34483 ft | 520 kts | 112° |
| 2026-05-07 09:21 | 71.45401 | 98.51592 | 34480 ft | 520 kts | 112° |
| 2026-05-07 09:21 | 71.42704 | 98.72442 | 34492 ft | 519 kts | 113° |
| 2026-05-07 09:22 | 71.39980 | 98.93247 | 34491 ft | 520 kts | 113° |
| 2026-05-07 09:22 | 71.37222 | 99.14092 | 34490 ft | 520 kts | 113° |
| 2026-05-07 09:23 | 71.34443 | 99.34862 | 34487 ft | 519 kts | 113° |
| 2026-05-07 09:23 | 71.31647 | 99.55530 | 34483 ft | 520 kts | 113° |
| 2026-05-07 09:24 | 71.28841 | 99.76043 | 34490 ft | 520 kts | 114° |
| 2026-05-07 09:24 | 71.26000 | 99.96596 | 34486 ft | 519 kts | 114° |
| 2026-05-07 09:25 | 71.23126 | 100.17153 | 34477 ft | 520 kts | 114° |
| 2026-05-07 09:25 | 71.21218 | 100.30682 | 34451 ft | 520 kts | 114° |
| 2026-05-07 09:26 | 71.18317 | 100.51080 | 34485 ft | 520 kts | 114° |
| 2026-05-07 09:26 | 71.15383 | 100.71479 | 34485 ft | 522 kts | 115° |
| 2026-05-07 09:27 | 71.12434 | 100.91779 | 34484 ft | 521 kts | 115° |
| 2026-05-07 09:28 | 71.07964 | 101.22137 | 34485 ft | 521 kts | 115° |
| 2026-05-07 09:28 | 71.04952 | 101.42334 | 34477 ft | 521 kts | 115° |
| 2026-05-07 09:29 | 71.01915 | 101.62488 | 34464 ft | 520 kts | 115° |
| 2026-05-07 09:29 | 70.98855 | 101.82597 | 34459 ft | 520 kts | 116° |
| 2026-05-07 09:30 | 70.95790 | 102.02522 | 34465 ft | 520 kts | 116° |
| 2026-05-07 09:30 | 70.92707 | 102.22372 | 34446 ft | 520 kts | 116° |
| 2026-05-07 09:31 | 70.89599 | 102.42183 | 34454 ft | 520 kts | 116° |
| 2026-05-07 09:31 | 70.86450 | 102.62059 | 34466 ft | 520 kts | 116° |
| 2026-05-07 09:32 | 70.83312 | 102.81675 | 34470 ft | 520 kts | 117° |
| 2026-05-07 09:32 | 70.80141 | 103.01295 | 34440 ft | 520 kts | 117° |
| 2026-05-07 09:33 | 70.76936 | 103.20930 | 34436 ft | 521 kts | 117° |
| 2026-05-07 09:33 | 70.73704 | 103.40545 | 34436 ft | 521 kts | 117° |
| 2026-05-07 09:34 | 70.70472 | 103.59975 | 34439 ft | 522 kts | 117° |
| 2026-05-07 09:34 | 70.67209 | 103.79410 | 34450 ft | 521 kts | 118° |
| 2026-05-07 09:35 | 70.63906 | 103.98884 | 34451 ft | 521 kts | 118° |
| 2026-05-07 09:35 | 70.60608 | 104.18146 | 34458 ft | 521 kts | 118° |
| 2026-05-07 09:36 | 70.57289 | 104.37355 | 34466 ft | 520 kts | 118° |
| 2026-05-07 09:36 | 70.53939 | 104.56560 | 34480 ft | 521 kts | 118° |
| 2026-05-07 09:37 | 70.50586 | 104.75604 | 34455 ft | 521 kts | 119° |
| 2026-05-07 09:37 | 70.47212 | 104.94592 | 34468 ft | 521 kts | 118° |
| 2026-05-07 09:38 | 70.43809 | 105.13571 | 34470 ft | 522 kts | 119° |
| 2026-05-07 09:38 | 70.40378 | 105.32529 | 34458 ft | 522 kts | 119° |
| 2026-05-07 09:39 | 70.36937 | 105.51367 | 34456 ft | 520 kts | 119° |
| 2026-05-07 09:39 | 70.33487 | 105.70091 | 34449 ft | 520 kts | 120° |
| 2026-05-07 09:40 | 70.30008 | 105.88797 | 34452 ft | 521 kts | 120° |
| 2026-05-07 09:40 | 70.26475 | 106.07628 | 34440 ft | 523 kts | 120° |
| 2026-05-07 09:41 | 70.22959 | 106.26196 | 34449 ft | 521 kts | 120° |
| 2026-05-07 09:41 | 70.19430 | 106.44672 | 34457 ft | 521 kts | 120° |
| 2026-05-07 09:42 | 70.15866 | 106.63171 | 34468 ft | 521 kts | 120° |
| 2026-05-07 09:42 | 70.12271 | 106.81667 | 34468 ft | 520 kts | 121° |
| 2026-05-07 09:43 | 70.08678 | 106.99991 | 34475 ft | 520 kts | 121° |
| 2026-05-07 09:43 | 70.05074 | 107.18213 | 34471 ft | 520 kts | 121° |
| 2026-05-07 09:44 | 70.01451 | 107.36373 | 34473 ft | 521 kts | 121° |
| 2026-05-07 09:44 | 69.97800 | 107.54520 | 34491 ft | 521 kts | 121° |
| 2026-05-07 09:45 | 69.94111 | 107.72696 | 34474 ft | 520 kts | 122° |
| 2026-05-07 09:45 | 69.90452 | 107.90572 | 34459 ft | 520 kts | 122° |
| 2026-05-07 09:46 | 69.86742 | 108.08545 | 34440 ft | 520 kts | 122° |
| 2026-05-07 09:46 | 69.83035 | 108.26354 | 34457 ft | 520 kts | 122° |
| 2026-05-07 09:47 | 69.79299 | 108.44154 | 34480 ft | 519 kts | 122° |
| 2026-05-07 09:47 | 69.75541 | 108.61908 | 34473 ft | 520 kts | 122° |
| 2026-05-07 09:48 | 69.71765 | 108.79599 | 34439 ft | 520 kts | 122° |
| 2026-05-07 09:48 | 69.67976 | 108.97213 | 34457 ft | 519 kts | 122° |
| 2026-05-07 09:49 | 69.64188 | 109.14675 | 34468 ft | 519 kts | 122° |
| 2026-05-07 09:49 | 69.60347 | 109.32233 | 34481 ft | 519 kts | 122° |
| 2026-05-07 09:50 | 69.56533 | 109.49530 | 34508 ft | 519 kts | 122° |
| 2026-05-07 09:50 | 69.52673 | 109.66896 | 34526 ft | 520 kts | 123° |
| 2026-05-07 09:51 | 69.48783 | 109.84256 | 34511 ft | 520 kts | 123° |
| 2026-05-07 09:51 | 69.44910 | 110.01400 | 34502 ft | 518 kts | 123° |
| 2026-05-07 09:52 | 69.40998 | 110.18578 | 34505 ft | 518 kts | 123° |
| 2026-05-07 09:52 | 69.37074 | 110.35674 | 34502 ft | 520 kts | 123° |
| 2026-05-07 09:53 | 69.33126 | 110.52738 | 34502 ft | 520 kts | 123° |
| 2026-05-07 09:53 | 69.29168 | 110.69719 | 34496 ft | 521 kts | 124° |
| 2026-05-07 09:54 | 69.25172 | 110.86721 | 34505 ft | 519 kts | 124° |
| 2026-05-07 09:54 | 69.21179 | 111.03577 | 34497 ft | 519 kts | 124° |
| 2026-05-07 09:55 | 69.17165 | 111.20388 | 34505 ft | 519 kts | 124° |
| 2026-05-07 09:55 | 69.13145 | 111.37103 | 34525 ft | 518 kts | 124° |
| 2026-05-07 09:56 | 69.09109 | 111.53751 | 34530 ft | 519 kts | 124° |
| 2026-05-07 09:56 | 69.05056 | 111.70345 | 34533 ft | 520 kts | 126° |
| 2026-05-07 09:57 | 69.00990 | 111.86861 | 34530 ft | 519 kts | 126° |
| 2026-05-07 09:57 | 68.96897 | 112.03356 | 34538 ft | 519 kts | 126° |
| 2026-05-07 09:58 | 68.92790 | 112.19795 | 34534 ft | 519 kts | 126° |
| 2026-05-07 09:58 | 68.88663 | 112.36176 | 34546 ft | 519 kts | 125° |
| 2026-05-07 09:59 | 68.84522 | 112.52496 | 34554 ft | 519 kts | 125° |
| 2026-05-07 09:59 | 68.80384 | 112.68685 | 34560 ft | 519 kts | 126° |
| 2026-05-07 10:00 | 68.76218 | 112.84860 | 34541 ft | 519 kts | 126° |
| 2026-05-07 10:00 | 68.72063 | 113.00872 | 34565 ft | 518 kts | 126° |
| 2026-05-07 10:01 | 68.67860 | 113.16952 | 34555 ft | 519 kts | 126° |
| 2026-05-07 10:01 | 68.63644 | 113.32962 | 34563 ft | 519 kts | 126° |
| 2026-05-07 10:02 | 68.59428 | 113.48859 | 34566 ft | 519 kts | 126° |
| 2026-05-07 10:02 | 68.55188 | 113.64723 | 34577 ft | 518 kts | 126° |
| 2026-05-07 10:03 | 68.50954 | 113.80454 | 34585 ft | 519 kts | 127° |
| 2026-05-07 10:03 | 68.46676 | 113.96233 | 34584 ft | 519 kts | 127° |
| 2026-05-07 10:04 | 68.42392 | 114.11920 | 34580 ft | 520 kts | 127° |
| 2026-05-07 10:04 | 68.38092 | 114.27554 | 34585 ft | 519 kts | 127° |
| 2026-05-07 10:05 | 68.33773 | 114.43146 | 34564 ft | 520 kts | 127° |
| 2026-05-07 10:05 | 68.29437 | 114.58684 | 34586 ft | 520 kts | 127° |
| 2026-05-07 10:06 | 68.25089 | 114.74156 | 34590 ft | 520 kts | 128° |
| 2026-05-07 10:06 | 68.20730 | 114.89558 | 34577 ft | 520 kts | 128° |
| 2026-05-07 10:07 | 68.16351 | 115.04923 | 34576 ft | 520 kts | 128° |
| 2026-05-07 10:07 | 68.11955 | 115.20236 | 34589 ft | 521 kts | 128° |
| 2026-05-07 10:08 | 68.07546 | 115.35486 | 34591 ft | 521 kts | 128° |
| 2026-05-07 10:08 | 68.03127 | 115.50668 | 34593 ft | 521 kts | 128° |
| 2026-05-07 10:09 | 67.98689 | 115.65808 | 34589 ft | 521 kts | 129° |
| 2026-05-07 10:09 | 67.94215 | 115.80966 | 34591 ft | 522 kts | 129° |
| 2026-05-07 10:10 | 67.89754 | 115.95970 | 34596 ft | 522 kts | 129° |
| 2026-05-07 10:10 | 67.85270 | 116.10949 | 34594 ft | 520 kts | 129° |
| 2026-05-07 10:11 | 67.80780 | 116.25850 | 34596 ft | 521 kts | 129° |
| 2026-05-07 10:11 | 67.76268 | 116.40719 | 34600 ft | 520 kts | 129° |
| 2026-05-07 10:12 | 67.71748 | 116.55515 | 34616 ft | 521 kts | 129° |
| 2026-05-07 10:12 | 67.67194 | 116.70317 | 34600 ft | 521 kts | 130° |
| 2026-05-07 10:13 | 67.62643 | 116.85009 | 34585 ft | 521 kts | 130° |
| 2026-05-07 10:13 | 67.58089 | 116.99616 | 34603 ft | 520 kts | 130° |
| 2026-05-07 10:14 | 67.53516 | 117.14181 | 34590 ft | 521 kts | 130° |
| 2026-05-07 10:14 | 67.48933 | 117.28683 | 34609 ft | 521 kts | 130° |
| 2026-05-07 10:15 | 67.44335 | 117.43134 | 34609 ft | 521 kts | 130° |
| 2026-05-07 10:15 | 67.39713 | 117.57566 | 34619 ft | 521 kts | 130° |
| 2026-05-07 10:16 | 67.35087 | 117.71917 | 34630 ft | 520 kts | 131° |
| 2026-05-07 10:16 | 67.30447 | 117.86211 | 34610 ft | 519 kts | 131° |
| 2026-05-07 10:17 | 67.25831 | 118.00339 | 34623 ft | 520 kts | 131° |
| 2026-05-07 10:17 | 67.21157 | 118.14549 | 34629 ft | 521 kts | 131° |
| 2026-05-07 10:18 | 67.16458 | 118.28748 | 34625 ft | 521 kts | 131° |
| 2026-05-07 10:18 | 67.11777 | 118.42797 | 34614 ft | 522 kts | 131° |
| 2026-05-07 10:19 | 67.07048 | 118.56895 | 34635 ft | 522 kts | 131° |
| 2026-05-07 10:19 | 67.02329 | 118.70876 | 34630 ft | 522 kts | 132° |
| 2026-05-07 10:20 | 66.97602 | 118.84787 | 34630 ft | 522 kts | 132° |
| 2026-05-07 10:20 | 66.92847 | 118.98692 | 34629 ft | 522 kts | 132° |
| 2026-05-07 10:21 | 66.88091 | 119.12513 | 34624 ft | 522 kts | 132° |
| 2026-05-07 10:21 | 66.83309 | 119.26318 | 34637 ft | 522 kts | 132° |
| 2026-05-07 10:22 | 66.78528 | 119.40031 | 34642 ft | 523 kts | 132° |
| 2026-05-07 10:22 | 66.73732 | 119.53704 | 34642 ft | 523 kts | 132° |
| 2026-05-07 10:23 | 66.68918 | 119.67339 | 34653 ft | 522 kts | 133° |
| 2026-05-07 10:23 | 66.64073 | 119.80961 | 34648 ft | 522 kts | 133° |
| 2026-05-07 10:24 | 66.59269 | 119.94393 | 34664 ft | 522 kts | 133° |
| 2026-05-07 10:24 | 66.54357 | 120.07744 | 34658 ft | 523 kts | 134° |
| 2026-05-07 10:25 | 66.49389 | 120.20923 | 34660 ft | 522 kts | 134° |
| 2026-05-07 10:25 | 66.44418 | 120.34051 | 34671 ft | 522 kts | 134° |
| 2026-05-07 10:26 | 66.39425 | 120.47164 | 34673 ft | 523 kts | 134° |
| 2026-05-07 10:26 | 66.34452 | 120.60143 | 34664 ft | 522 kts | 134° |
| 2026-05-07 10:27 | 66.29472 | 120.73060 | 34661 ft | 522 kts | 135° |
| 2026-05-07 10:27 | 66.24439 | 120.86031 | 34684 ft | 522 kts | 135° |
| 2026-05-07 10:27 | 66.08850 | 121.23156 | 34848 ft | 517 kts | 134° |
| 2026-05-07 10:28 | 66.06639 | 121.30113 | 34493 ft | 527 kts | 127° |
| 2026-05-07 10:28 | 65.66887 | 122.14292 | 34855 ft | 514 kts | 132° |
| 2026-05-07 10:28 | 65.24721 | 123.27924 | 34687 ft | 523 kts | 133° |
| 2026-05-07 10:29 | 64.79996 | 124.21986 | 34786 ft | 524 kts | 127° |
| 2026-05-07 10:29 | 64.36552 | 125.31114 | 34737 ft | 521 kts | 130° |
| 2026-05-07 10:30 | 63.47366 | 127.02099 | 34712 ft | 522 kts | 131° |
| 2026-05-07 10:30 | 63.42186 | 127.13294 | 34437 ft | 520 kts | 140° |
| 2026-05-07 10:31 | 63.39467 | 127.18411 | 34034 ft | 511 kts | 141° |
| 2026-05-07 10:31 | 63.23772 | 127.48859 | 33637 ft | 506 kts | 141° |
| 2026-05-07 10:31 | 62.97866 | 128.03886 | 33181 ft | 496 kts | 156° |
| 2026-05-07 10:31 | 62.94666 | 128.06334 | 32770 ft | 484 kts | 170° |
| 2026-05-07 10:32 | 62.91465 | 128.08432 | 32337 ft | 483 kts | 166° |
| 2026-05-07 10:32 | 62.88289 | 128.10655 | 31692 ft | 486 kts | 166° |
| 2026-05-07 10:32 | 62.85068 | 128.12938 | 31009 ft | 489 kts | 167° |
| 2026-05-07 10:32 | 62.81863 | 128.15234 | 30197 ft | 491 kts | 166° |
| 2026-05-07 10:33 | 62.78621 | 128.17554 | 29329 ft | 492 kts | 166° |
| 2026-05-07 10:33 | 62.75415 | 128.19836 | 28461 ft | 493 kts | 167° |
| 2026-05-07 10:33 | 62.72155 | 128.22176 | 27580 ft | 493 kts | 167° |
| 2026-05-07 10:33 | 62.68928 | 128.24483 | 26699 ft | 492 kts | 166° |
| 2026-05-07 10:34 | 62.65732 | 128.26767 | 25820 ft | 490 kts | 166° |
| 2026-05-07 10:34 | 62.62519 | 128.29076 | 24951 ft | 489 kts | 166° |
| 2026-05-07 10:34 | 62.59305 | 128.31380 | 24063 ft | 486 kts | 166° |
| 2026-05-07 10:34 | 62.56128 | 128.33647 | 23082 ft | 473 kts | 166° |
| 2026-05-07 10:35 | 62.53185 | 128.36328 | 22084 ft | 457 kts | 153° |
| 2026-05-07 10:35 | 62.50774 | 128.40505 | 21170 ft | 443 kts | 134° |
| 2026-05-07 10:35 | 62.49054 | 128.45845 | 20277 ft | 428 kts | 119° |
| 2026-05-07 10:35 | 62.47692 | 128.51408 | 19384 ft | 414 kts | 118° |
| 2026-05-07 10:36 | 62.46384 | 128.56782 | 18465 ft | 401 kts | 118° |
| 2026-05-07 10:36 | 62.45110 | 128.62025 | 17544 ft | 391 kts | 118° |
| 2026-05-07 10:36 | 62.43876 | 128.67119 | 16636 ft | 381 kts | 119° |
| 2026-05-07 10:36 | 62.42662 | 128.72137 | 15705 ft | 373 kts | 119° |
| 2026-05-07 10:37 | 62.41491 | 128.76965 | 14816 ft | 366 kts | 119° |
| 2026-05-07 10:37 | 62.40315 | 128.81830 | 14018 ft | 370 kts | 119° |
| 2026-05-07 10:37 | 62.39120 | 128.86762 | 13123 ft | 380 kts | 119° |
| 2026-05-07 10:37 | 62.37877 | 128.91841 | 12221 ft | 387 kts | 119° |
| 2026-05-07 10:38 | 62.36624 | 128.96988 | 11311 ft | 392 kts | 116° |
| 2026-05-07 10:38 | 62.35735 | 129.02528 | 10382 ft | 397 kts | 106° |
| 2026-05-07 10:38 | 62.34942 | 129.08180 | 9515 ft | 398 kts | 107° |
| 2026-05-07 10:38 | 62.34146 | 129.13765 | 8448 ft | 383 kts | 107° |
| 2026-05-07 10:39 | 62.33380 | 129.19026 | 7524 ft | 363 kts | 106° |
| 2026-05-07 10:39 | 62.32622 | 129.24182 | 7117 ft | 354 kts | 107° |
| 2026-05-07 10:39 | 62.31899 | 129.29073 | 7152 ft | 334 kts | 106° |
| 2026-05-07 10:39 | 62.31218 | 129.33672 | 7097 ft | 320 kts | 106° |
| 2026-05-07 10:40 | 62.30553 | 129.38123 | 7092 ft | 304 kts | 106° |
| 2026-05-07 10:40 | 62.30053 | 129.42419 | 7080 ft | 288 kts | 92° |
| 2026-05-07 10:40 | 62.30029 | 129.46599 | 7001 ft | 277 kts | 87° |
| 2026-05-07 10:40 | 62.30028 | 129.50644 | 6986 ft | 261 kts | 87° |
| 2026-05-07 10:41 | 62.30022 | 129.54384 | 6977 ft | 242 kts | 87° |
| 2026-05-07 10:41 | 62.30014 | 129.57854 | 6978 ft | 226 kts | 87° |
| 2026-05-07 10:41 | 62.29995 | 129.61154 | 6986 ft | 219 kts | 88° |
| 2026-05-07 10:41 | 62.29992 | 129.64334 | 7084 ft | 208 kts | 85° |
| 2026-05-07 10:42 | 62.29989 | 129.67526 | 7071 ft | 215 kts | 89° |
| 2026-05-07 10:42 | 62.29984 | 129.70619 | 6968 ft | 203 kts | 88° |
| 2026-05-07 10:42 | 62.29977 | 129.73624 | 7021 ft | 201 kts | 88° |
| 2026-05-07 10:42 | 62.30713 | 129.86180 | 7070 ft | 200 kts | 88° |
| 2026-05-07 10:43 | 62.30646 | 129.89223 | 6901 ft | 203 kts | 106° |
| 2026-05-07 10:43 | 62.29936 | 129.91768 | 7057 ft | 201 kts | 127° |
| 2026-05-07 10:43 | 62.29099 | 129.94228 | 7027 ft | 206 kts | 127° |
| 2026-05-07 10:43 | 62.28257 | 129.96696 | 6999 ft | 205 kts | 128° |
| 2026-05-07 10:44 | 62.27404 | 129.99130 | 6992 ft | 205 kts | 133° |
| 2026-05-07 10:44 | 62.26228 | 130.00600 | 6922 ft | 200 kts | 172° |
| 2026-05-07 10:44 | 62.24868 | 130.00642 | 6437 ft | 193 kts | 189° |
| 2026-05-07 10:44 | 62.23567 | 130.00229 | 5840 ft | 185 kts | 210° |
| 2026-05-07 10:45 | 62.22543 | 129.98715 | 5331 ft | 179 kts | 223° |
| 2026-05-07 10:45 | 62.21555 | 129.97128 | 4786 ft | 180 kts | 223° |
| 2026-05-07 10:45 | 62.20543 | 129.95496 | 3776 ft | 200 kts | 223° |
| 2026-05-07 10:45 | 62.19409 | 129.93668 | 2957 ft | 203 kts | 222° |
| 2026-05-07 10:46 | 62.18314 | 129.91919 | 2484 ft | 192 kts | 223° |
| 2026-05-07 10:46 | 62.17280 | 129.90250 | 2011 ft | 183 kts | 223° |
| 2026-05-07 10:46 | 62.16314 | 129.88698 | 1869 ft | 172 kts | 224° |
| 2026-05-07 10:46 | 62.15369 | 129.87170 | 1567 ft | 170 kts | 223° |
| 2026-05-07 10:47 | 62.14442 | 129.85678 | 1170 ft | 168 kts | 222° |
| 2026-05-07 10:47 | 62.13524 | 129.84204 | 832 ft | 165 kts | 221° |
| 2026-05-07 10:47 | 62.12598 | 129.82719 | 583 ft | 165 kts | 221° |
| 2026-05-07 10:47 | 62.11696 | 129.81276 | 444 ft | 162 kts | 220° |
| 2026-05-07 10:48 | 62.10770 | 129.79822 | 458 ft | 165 kts | 218° |
| 2026-05-07 10:48 | 62.09874 | 129.78325 | 353 ft | 157 kts | 216° |
| 2026-05-07 10:48 | 62.09082 | 129.77098 | 329 ft | 129 kts | 216° |
| 2026-05-07 10:48 | 62.08549 | 129.76363 | 301 ft | 38 kts | 189° |